<?xml version="1.0" encoding="UTF-8" standalone="no" ?>
<gpx xmlns="http://www.topografix.com/GPX/1/1" xmlns:xsi="http://www.w3.org/2001/XMLSchema-instance" xsi:schemaLocation="http://www.topografix.com/GPX/1/1 http://www.topografix.com/GPX/1/1/gpx.xsd" version="1.1" creator="VisuGPX - https://www.visugpx.com">
  <metadata>
    <name>Fleuré 7,5 Km</name>
    <desc><![CDATA[Randonnée en boucle de 7,5 Km au départ de l'air de repos de Fleuré]]></desc>
  </metadata>
  <trk>
    <name><![CDATA[Fleuré 7,5 Km_1]]></name>
    <extensions>
      <line xmlns="http://www.topografix.com/GPX/gpx_style/0/2">
        <color>0000FF</color>
        <width>4</width>
      </line>
    </extensions>
    <trkseg>
      <trkpt lat="46.47622" lon="0.52382">
        <ele>138.157</ele>
        <time>2022-03-20T13:00:41Z</time>
      </trkpt>
      <trkpt lat="46.47629" lon="0.52383">
        <ele>137.526</ele>
        <time>2022-03-20T13:01:10Z</time>
      </trkpt>
      <trkpt lat="46.4763" lon="0.52393">
        <ele>137.067</ele>
        <time>2022-03-20T13:01:20Z</time>
      </trkpt>
      <trkpt lat="46.47634" lon="0.52401">
        <ele>136.528</ele>
        <time>2022-03-20T13:01:30Z</time>
      </trkpt>
      <trkpt lat="46.47636" lon="0.52412">
        <ele>136.092</ele>
        <time>2022-03-20T13:01:40Z</time>
      </trkpt>
      <trkpt lat="46.47636" lon="0.52422">
        <ele>135.925</ele>
        <time>2022-03-20T13:01:45Z</time>
      </trkpt>
      <trkpt lat="46.47636" lon="0.52431">
        <ele>135.8</ele>
        <time>2022-03-20T13:01:50Z</time>
      </trkpt>
      <trkpt lat="46.47634" lon="0.52443">
        <ele>135.766</ele>
        <time>2022-03-20T13:01:56Z</time>
      </trkpt>
      <trkpt lat="46.47634" lon="0.52453">
        <ele>135.818</ele>
        <time>2022-03-20T13:02:02Z</time>
      </trkpt>
      <trkpt lat="46.47632" lon="0.52462">
        <ele>135.912</ele>
        <time>2022-03-20T13:02:09Z</time>
      </trkpt>
      <trkpt lat="46.4763" lon="0.52471">
        <ele>136.033</ele>
        <time>2022-03-20T13:02:16Z</time>
      </trkpt>
      <trkpt lat="46.47628" lon="0.52481">
        <ele>136.156</ele>
        <time>2022-03-20T13:02:23Z</time>
      </trkpt>
      <trkpt lat="46.47627" lon="0.52491">
        <ele>136.266</ele>
        <time>2022-03-20T13:02:28Z</time>
      </trkpt>
      <trkpt lat="46.47626" lon="0.52501">
        <ele>136.432</ele>
        <time>2022-03-20T13:02:35Z</time>
      </trkpt>
      <trkpt lat="46.47625" lon="0.52512">
        <ele>136.592</ele>
        <time>2022-03-20T13:02:41Z</time>
      </trkpt>
      <trkpt lat="46.47625" lon="0.52522">
        <ele>136.777</ele>
        <time>2022-03-20T13:02:48Z</time>
      </trkpt>
      <trkpt lat="46.47624" lon="0.52532">
        <ele>136.917</ele>
        <time>2022-03-20T13:02:53Z</time>
      </trkpt>
      <trkpt lat="46.47623" lon="0.52541">
        <ele>137.097</ele>
        <time>2022-03-20T13:02:59Z</time>
      </trkpt>
      <trkpt lat="46.4762" lon="0.52552">
        <ele>137.334</ele>
        <time>2022-03-20T13:03:06Z</time>
      </trkpt>
      <trkpt lat="46.47618" lon="0.52565">
        <ele>137.541</ele>
        <time>2022-03-20T13:03:12Z</time>
      </trkpt>
      <trkpt lat="46.47616" lon="0.52575">
        <ele>137.731</ele>
        <time>2022-03-20T13:03:17Z</time>
      </trkpt>
      <trkpt lat="46.47616" lon="0.52585">
        <ele>137.945</ele>
        <time>2022-03-20T13:03:23Z</time>
      </trkpt>
      <trkpt lat="46.47614" lon="0.52594">
        <ele>138.197</ele>
        <time>2022-03-20T13:03:30Z</time>
      </trkpt>
      <trkpt lat="46.47613" lon="0.52605">
        <ele>138.414</ele>
        <time>2022-03-20T13:03:36Z</time>
      </trkpt>
      <trkpt lat="46.47611" lon="0.52614">
        <ele>138.693</ele>
        <time>2022-03-20T13:03:44Z</time>
      </trkpt>
      <trkpt lat="46.4761" lon="0.52625">
        <ele>138.951</ele>
        <time>2022-03-20T13:03:52Z</time>
      </trkpt>
      <trkpt lat="46.47609" lon="0.52635">
        <ele>139.15</ele>
        <time>2022-03-20T13:03:59Z</time>
      </trkpt>
      <trkpt lat="46.47607" lon="0.52644">
        <ele>139.314</ele>
        <time>2022-03-20T13:04:05Z</time>
      </trkpt>
      <trkpt lat="46.47606" lon="0.52655">
        <ele>139.469</ele>
        <time>2022-03-20T13:04:11Z</time>
      </trkpt>
      <trkpt lat="46.47604" lon="0.52665">
        <ele>139.679</ele>
        <time>2022-03-20T13:04:19Z</time>
      </trkpt>
      <trkpt lat="46.47601" lon="0.52674">
        <ele>139.866</ele>
        <time>2022-03-20T13:04:26Z</time>
      </trkpt>
      <trkpt lat="46.476" lon="0.52684">
        <ele>140.047</ele>
        <time>2022-03-20T13:04:33Z</time>
      </trkpt>
      <trkpt lat="46.47598" lon="0.52695">
        <ele>140.193</ele>
        <time>2022-03-20T13:04:39Z</time>
      </trkpt>
      <trkpt lat="46.47597" lon="0.52704">
        <ele>140.317</ele>
        <time>2022-03-20T13:04:44Z</time>
      </trkpt>
      <trkpt lat="46.47595" lon="0.52713">
        <ele>140.459</ele>
        <time>2022-03-20T13:04:50Z</time>
      </trkpt>
      <trkpt lat="46.47593" lon="0.52725">
        <ele>140.595</ele>
        <time>2022-03-20T13:04:56Z</time>
      </trkpt>
      <trkpt lat="46.47592" lon="0.52735">
        <ele>140.725</ele>
        <time>2022-03-20T13:05:02Z</time>
      </trkpt>
      <trkpt lat="46.47591" lon="0.52745">
        <ele>140.868</ele>
        <time>2022-03-20T13:05:09Z</time>
      </trkpt>
      <trkpt lat="46.47589" lon="0.52755">
        <ele>140.997</ele>
        <time>2022-03-20T13:05:16Z</time>
      </trkpt>
      <trkpt lat="46.47588" lon="0.52765">
        <ele>141.1</ele>
        <time>2022-03-20T13:05:22Z</time>
      </trkpt>
      <trkpt lat="46.47586" lon="0.52774">
        <ele>141.202</ele>
        <time>2022-03-20T13:05:28Z</time>
      </trkpt>
      <trkpt lat="46.47584" lon="0.52784">
        <ele>141.308</ele>
        <time>2022-03-20T13:05:35Z</time>
      </trkpt>
      <trkpt lat="46.47583" lon="0.52794">
        <ele>141.4</ele>
        <time>2022-03-20T13:05:42Z</time>
      </trkpt>
      <trkpt lat="46.47581" lon="0.52804">
        <ele>141.479</ele>
        <time>2022-03-20T13:05:49Z</time>
      </trkpt>
      <trkpt lat="46.47578" lon="0.52813">
        <ele>141.538</ele>
        <time>2022-03-20T13:05:55Z</time>
      </trkpt>
      <trkpt lat="46.47578" lon="0.52823">
        <ele>141.592</ele>
        <time>2022-03-20T13:06:02Z</time>
      </trkpt>
      <trkpt lat="46.47576" lon="0.52833">
        <ele>141.629</ele>
        <time>2022-03-20T13:06:09Z</time>
      </trkpt>
      <trkpt lat="46.47575" lon="0.52842">
        <ele>141.645</ele>
        <time>2022-03-20T13:06:14Z</time>
      </trkpt>
      <trkpt lat="46.47573" lon="0.52853">
        <ele>141.66</ele>
        <time>2022-03-20T13:06:20Z</time>
      </trkpt>
      <trkpt lat="46.47571" lon="0.52864">
        <ele>141.671</ele>
        <time>2022-03-20T13:06:26Z</time>
      </trkpt>
      <trkpt lat="46.4757" lon="0.52873">
        <ele>141.675</ele>
        <time>2022-03-20T13:06:33Z</time>
      </trkpt>
      <trkpt lat="46.47571" lon="0.52883">
        <ele>141.674</ele>
        <time>2022-03-20T13:06:41Z</time>
      </trkpt>
      <trkpt lat="46.47569" lon="0.52893">
        <ele>141.668</ele>
        <time>2022-03-20T13:06:48Z</time>
      </trkpt>
      <trkpt lat="46.47567" lon="0.52904">
        <ele>141.653</ele>
        <time>2022-03-20T13:06:56Z</time>
      </trkpt>
      <trkpt lat="46.47565" lon="0.52913">
        <ele>141.634</ele>
        <time>2022-03-20T13:07:02Z</time>
      </trkpt>
      <trkpt lat="46.47563" lon="0.52923">
        <ele>141.613</ele>
        <time>2022-03-20T13:07:09Z</time>
      </trkpt>
      <trkpt lat="46.47561" lon="0.52932">
        <ele>141.595</ele>
        <time>2022-03-20T13:07:16Z</time>
      </trkpt>
      <trkpt lat="46.4756" lon="0.52942">
        <ele>141.588</ele>
        <time>2022-03-20T13:07:23Z</time>
      </trkpt>
      <trkpt lat="46.47558" lon="0.52951">
        <ele>141.59</ele>
        <time>2022-03-20T13:07:29Z</time>
      </trkpt>
      <trkpt lat="46.47557" lon="0.52962">
        <ele>141.588</ele>
        <time>2022-03-20T13:07:35Z</time>
      </trkpt>
      <trkpt lat="46.47556" lon="0.52972">
        <ele>141.59</ele>
        <time>2022-03-20T13:07:41Z</time>
      </trkpt>
      <trkpt lat="46.47555" lon="0.52981">
        <ele>141.603</ele>
        <time>2022-03-20T13:07:47Z</time>
      </trkpt>
      <trkpt lat="46.47553" lon="0.52991">
        <ele>141.626</ele>
        <time>2022-03-20T13:07:54Z</time>
      </trkpt>
      <trkpt lat="46.47554" lon="0.53002">
        <ele>141.674</ele>
        <time>2022-03-20T13:08:01Z</time>
      </trkpt>
      <trkpt lat="46.47557" lon="0.53011">
        <ele>141.773</ele>
        <time>2022-03-20T13:08:09Z</time>
      </trkpt>
      <trkpt lat="46.47562" lon="0.53017">
        <ele>141.869</ele>
        <time>2022-03-20T13:08:17Z</time>
      </trkpt>
      <trkpt lat="46.47567" lon="0.53024">
        <ele>141.943</ele>
        <time>2022-03-20T13:08:26Z</time>
      </trkpt>
      <trkpt lat="46.47573" lon="0.5303">
        <ele>141.981</ele>
        <time>2022-03-20T13:08:34Z</time>
      </trkpt>
      <trkpt lat="46.4758" lon="0.53034">
        <ele>141.997</ele>
        <time>2022-03-20T13:08:40Z</time>
      </trkpt>
      <trkpt lat="46.47586" lon="0.53039">
        <ele>142.001</ele>
        <time>2022-03-20T13:08:47Z</time>
      </trkpt>
      <trkpt lat="46.47592" lon="0.53042">
        <ele>142</ele>
        <time>2022-03-20T13:08:55Z</time>
      </trkpt>
      <trkpt lat="46.47597" lon="0.53048">
        <ele>141.987</ele>
        <time>2022-03-20T13:09:06Z</time>
      </trkpt>
      <trkpt lat="46.47603" lon="0.53054">
        <ele>141.966</ele>
        <time>2022-03-20T13:09:14Z</time>
      </trkpt>
      <trkpt lat="46.47611" lon="0.53061">
        <ele>141.93</ele>
        <time>2022-03-20T13:09:21Z</time>
      </trkpt>
      <trkpt lat="46.47619" lon="0.53068">
        <ele>141.902</ele>
        <time>2022-03-20T13:09:26Z</time>
      </trkpt>
      <trkpt lat="46.47625" lon="0.53074">
        <ele>141.875</ele>
        <time>2022-03-20T13:09:32Z</time>
      </trkpt>
      <trkpt lat="46.47634" lon="0.53076">
        <ele>141.852</ele>
        <time>2022-03-20T13:09:37Z</time>
      </trkpt>
      <trkpt lat="46.47642" lon="0.5308">
        <ele>141.831</ele>
        <time>2022-03-20T13:09:42Z</time>
      </trkpt>
      <trkpt lat="46.4765" lon="0.53089">
        <ele>141.809</ele>
        <time>2022-03-20T13:09:48Z</time>
      </trkpt>
      <trkpt lat="46.47656" lon="0.53093">
        <ele>141.786</ele>
        <time>2022-03-20T13:09:53Z</time>
      </trkpt>
      <trkpt lat="46.47661" lon="0.53101">
        <ele>141.757</ele>
        <time>2022-03-20T13:09:59Z</time>
      </trkpt>
      <trkpt lat="46.47668" lon="0.53105">
        <ele>141.728</ele>
        <time>2022-03-20T13:10:05Z</time>
      </trkpt>
      <trkpt lat="46.47674" lon="0.53111">
        <ele>141.676</ele>
        <time>2022-03-20T13:10:15Z</time>
      </trkpt>
      <trkpt lat="46.47679" lon="0.53117">
        <ele>141.639</ele>
        <time>2022-03-20T13:10:22Z</time>
      </trkpt>
      <trkpt lat="46.47684" lon="0.53124">
        <ele>141.608</ele>
        <time>2022-03-20T13:10:28Z</time>
      </trkpt>
      <trkpt lat="46.4769" lon="0.53132">
        <ele>141.578</ele>
        <time>2022-03-20T13:10:34Z</time>
      </trkpt>
      <trkpt lat="46.47697" lon="0.53136">
        <ele>141.541</ele>
        <time>2022-03-20T13:10:42Z</time>
      </trkpt>
      <trkpt lat="46.47701" lon="0.53144">
        <ele>141.513</ele>
        <time>2022-03-20T13:10:48Z</time>
      </trkpt>
      <trkpt lat="46.47707" lon="0.53152">
        <ele>141.488</ele>
        <time>2022-03-20T13:10:54Z</time>
      </trkpt>
      <trkpt lat="46.47712" lon="0.5316">
        <ele>141.467</ele>
        <time>2022-03-20T13:11:00Z</time>
      </trkpt>
      <trkpt lat="46.47719" lon="0.53163">
        <ele>141.432</ele>
        <time>2022-03-20T13:11:07Z</time>
      </trkpt>
      <trkpt lat="46.47726" lon="0.53167">
        <ele>141.384</ele>
        <time>2022-03-20T13:11:13Z</time>
      </trkpt>
      <trkpt lat="46.47733" lon="0.5317">
        <ele>141.317</ele>
        <time>2022-03-20T13:11:19Z</time>
      </trkpt>
      <trkpt lat="46.47739" lon="0.53175">
        <ele>141.241</ele>
        <time>2022-03-20T13:11:25Z</time>
      </trkpt>
      <trkpt lat="46.47746" lon="0.53179">
        <ele>141.161</ele>
        <time>2022-03-20T13:11:31Z</time>
      </trkpt>
      <trkpt lat="46.47753" lon="0.53183">
        <ele>141.061</ele>
        <time>2022-03-20T13:11:38Z</time>
      </trkpt>
      <trkpt lat="46.47759" lon="0.53189">
        <ele>140.958</ele>
        <time>2022-03-20T13:11:45Z</time>
      </trkpt>
      <trkpt lat="46.47765" lon="0.53194">
        <ele>140.861</ele>
        <time>2022-03-20T13:11:52Z</time>
      </trkpt>
      <trkpt lat="46.47772" lon="0.53197">
        <ele>140.761</ele>
        <time>2022-03-20T13:11:59Z</time>
      </trkpt>
      <trkpt lat="46.47778" lon="0.53203">
        <ele>140.66</ele>
        <time>2022-03-20T13:12:06Z</time>
      </trkpt>
      <trkpt lat="46.47784" lon="0.53206">
        <ele>140.574</ele>
        <time>2022-03-20T13:12:12Z</time>
      </trkpt>
      <trkpt lat="46.4779" lon="0.5321">
        <ele>140.478</ele>
        <time>2022-03-20T13:12:19Z</time>
      </trkpt>
      <trkpt lat="46.47797" lon="0.53215">
        <ele>140.396</ele>
        <time>2022-03-20T13:12:25Z</time>
      </trkpt>
      <trkpt lat="46.47803" lon="0.5322">
        <ele>140.297</ele>
        <time>2022-03-20T13:12:32Z</time>
      </trkpt>
      <trkpt lat="46.47809" lon="0.53225">
        <ele>140.191</ele>
        <time>2022-03-20T13:12:39Z</time>
      </trkpt>
      <trkpt lat="46.47816" lon="0.53228">
        <ele>140.093</ele>
        <time>2022-03-20T13:12:45Z</time>
      </trkpt>
      <trkpt lat="46.47822" lon="0.53232">
        <ele>139.986</ele>
        <time>2022-03-20T13:12:51Z</time>
      </trkpt>
      <trkpt lat="46.47827" lon="0.53238">
        <ele>139.852</ele>
        <time>2022-03-20T13:12:58Z</time>
      </trkpt>
      <trkpt lat="46.47833" lon="0.53244">
        <ele>139.719</ele>
        <time>2022-03-20T13:13:05Z</time>
      </trkpt>
      <trkpt lat="46.47838" lon="0.53249">
        <ele>139.593</ele>
        <time>2022-03-20T13:13:12Z</time>
      </trkpt>
      <trkpt lat="46.47845" lon="0.53253">
        <ele>139.47</ele>
        <time>2022-03-20T13:13:19Z</time>
      </trkpt>
      <trkpt lat="46.47852" lon="0.53257">
        <ele>139.371</ele>
        <time>2022-03-20T13:13:25Z</time>
      </trkpt>
      <trkpt lat="46.47857" lon="0.53262">
        <ele>139.276</ele>
        <time>2022-03-20T13:13:31Z</time>
      </trkpt>
      <trkpt lat="46.47863" lon="0.53266">
        <ele>139.164</ele>
        <time>2022-03-20T13:13:38Z</time>
      </trkpt>
      <trkpt lat="46.47869" lon="0.53273">
        <ele>139.068</ele>
        <time>2022-03-20T13:13:44Z</time>
      </trkpt>
      <trkpt lat="46.47875" lon="0.53279">
        <ele>138.964</ele>
        <time>2022-03-20T13:13:51Z</time>
      </trkpt>
      <trkpt lat="46.47882" lon="0.53284">
        <ele>138.865</ele>
        <time>2022-03-20T13:13:58Z</time>
      </trkpt>
      <trkpt lat="46.47888" lon="0.53288">
        <ele>138.765</ele>
        <time>2022-03-20T13:14:05Z</time>
      </trkpt>
      <trkpt lat="46.47895" lon="0.53293">
        <ele>138.667</ele>
        <time>2022-03-20T13:14:12Z</time>
      </trkpt>
      <trkpt lat="46.479" lon="0.53298">
        <ele>138.568</ele>
        <time>2022-03-20T13:14:19Z</time>
      </trkpt>
      <trkpt lat="46.47906" lon="0.53303">
        <ele>138.484</ele>
        <time>2022-03-20T13:14:25Z</time>
      </trkpt>
      <trkpt lat="46.47912" lon="0.53308">
        <ele>138.4</ele>
        <time>2022-03-20T13:14:31Z</time>
      </trkpt>
      <trkpt lat="46.47918" lon="0.53315">
        <ele>138.304</ele>
        <time>2022-03-20T13:14:38Z</time>
      </trkpt>
      <trkpt lat="46.47924" lon="0.53321">
        <ele>138.211</ele>
        <time>2022-03-20T13:14:45Z</time>
      </trkpt>
      <trkpt lat="46.4793" lon="0.53326">
        <ele>138.118</ele>
        <time>2022-03-20T13:14:52Z</time>
      </trkpt>
      <trkpt lat="46.47935" lon="0.53333">
        <ele>138.029</ele>
        <time>2022-03-20T13:14:59Z</time>
      </trkpt>
      <trkpt lat="46.4794" lon="0.5334">
        <ele>137.941</ele>
        <time>2022-03-20T13:15:06Z</time>
      </trkpt>
      <trkpt lat="46.47947" lon="0.53344">
        <ele>137.843</ele>
        <time>2022-03-20T13:15:13Z</time>
      </trkpt>
      <trkpt lat="46.47951" lon="0.53351">
        <ele>137.756</ele>
        <time>2022-03-20T13:15:20Z</time>
      </trkpt>
      <trkpt lat="46.47956" lon="0.53358">
        <ele>137.61</ele>
        <time>2022-03-20T13:15:34Z</time>
      </trkpt>
      <trkpt lat="46.47962" lon="0.53364">
        <ele>137.528</ele>
        <time>2022-03-20T13:15:42Z</time>
      </trkpt>
      <trkpt lat="46.47969" lon="0.5337">
        <ele>137.46</ele>
        <time>2022-03-20T13:15:48Z</time>
      </trkpt>
      <trkpt lat="46.47974" lon="0.53377">
        <ele>137.387</ele>
        <time>2022-03-20T13:15:54Z</time>
      </trkpt>
      <trkpt lat="46.47979" lon="0.53383">
        <ele>137.271</ele>
        <time>2022-03-20T13:16:03Z</time>
      </trkpt>
      <trkpt lat="46.47985" lon="0.53391">
        <ele>137.17</ele>
        <time>2022-03-20T13:16:11Z</time>
      </trkpt>
      <trkpt lat="46.4799" lon="0.53396">
        <ele>137.106</ele>
        <time>2022-03-20T13:16:16Z</time>
      </trkpt>
      <trkpt lat="46.47996" lon="0.53398">
        <ele>137.004</ele>
        <time>2022-03-20T13:16:24Z</time>
      </trkpt>
      <trkpt lat="46.48003" lon="0.53401">
        <ele>136.939</ele>
        <time>2022-03-20T13:16:30Z</time>
      </trkpt>
      <trkpt lat="46.48013" lon="0.53407">
        <ele>136.877</ele>
        <time>2022-03-20T13:16:36Z</time>
      </trkpt>
      <trkpt lat="46.48022" lon="0.53405">
        <ele>136.822</ele>
        <time>2022-03-20T13:16:41Z</time>
      </trkpt>
      <trkpt lat="46.48028" lon="0.5341">
        <ele>136.734</ele>
        <time>2022-03-20T13:16:49Z</time>
      </trkpt>
      <trkpt lat="46.48035" lon="0.53411">
        <ele>136.68</ele>
        <time>2022-03-20T13:16:54Z</time>
      </trkpt>
      <trkpt lat="46.48043" lon="0.53413">
        <ele>136.613</ele>
        <time>2022-03-20T13:17:00Z</time>
      </trkpt>
      <trkpt lat="46.4805" lon="0.53416">
        <ele>136.546</ele>
        <time>2022-03-20T13:17:06Z</time>
      </trkpt>
      <trkpt lat="46.48056" lon="0.53419">
        <ele>136.468</ele>
        <time>2022-03-20T13:17:13Z</time>
      </trkpt>
      <trkpt lat="46.48062" lon="0.53422">
        <ele>136.401</ele>
        <time>2022-03-20T13:17:19Z</time>
      </trkpt>
      <trkpt lat="46.4807" lon="0.53425">
        <ele>136.32</ele>
        <time>2022-03-20T13:17:27Z</time>
      </trkpt>
      <trkpt lat="46.48076" lon="0.53428">
        <ele>136.27</ele>
        <time>2022-03-20T13:17:32Z</time>
      </trkpt>
      <trkpt lat="46.48082" lon="0.53432">
        <ele>136.212</ele>
        <time>2022-03-20T13:17:38Z</time>
      </trkpt>
      <trkpt lat="46.48089" lon="0.53435">
        <ele>136.164</ele>
        <time>2022-03-20T13:17:45Z</time>
      </trkpt>
      <trkpt lat="46.48095" lon="0.53439">
        <ele>136.131</ele>
        <time>2022-03-20T13:17:51Z</time>
      </trkpt>
      <trkpt lat="46.48102" lon="0.53442">
        <ele>136.099</ele>
        <time>2022-03-20T13:17:58Z</time>
      </trkpt>
      <trkpt lat="46.48108" lon="0.53446">
        <ele>136.064</ele>
        <time>2022-03-20T13:18:05Z</time>
      </trkpt>
      <trkpt lat="46.48115" lon="0.53449">
        <ele>136.025</ele>
        <time>2022-03-20T13:18:12Z</time>
      </trkpt>
      <trkpt lat="46.48122" lon="0.53453">
        <ele>135.984</ele>
        <time>2022-03-20T13:18:19Z</time>
      </trkpt>
      <trkpt lat="46.48128" lon="0.53456">
        <ele>135.954</ele>
        <time>2022-03-20T13:18:24Z</time>
      </trkpt>
      <trkpt lat="46.48134" lon="0.5346">
        <ele>135.916</ele>
        <time>2022-03-20T13:18:31Z</time>
      </trkpt>
      <trkpt lat="46.48141" lon="0.53463">
        <ele>135.881</ele>
        <time>2022-03-20T13:18:38Z</time>
      </trkpt>
      <trkpt lat="46.48148" lon="0.53466">
        <ele>135.846</ele>
        <time>2022-03-20T13:18:45Z</time>
      </trkpt>
      <trkpt lat="46.48154" lon="0.5347">
        <ele>135.817</ele>
        <time>2022-03-20T13:18:51Z</time>
      </trkpt>
      <trkpt lat="46.48161" lon="0.53472">
        <ele>135.791</ele>
        <time>2022-03-20T13:18:58Z</time>
      </trkpt>
      <trkpt lat="46.48167" lon="0.53476">
        <ele>135.771</ele>
        <time>2022-03-20T13:19:05Z</time>
      </trkpt>
      <trkpt lat="46.48173" lon="0.53478">
        <ele>135.771</ele>
        <time>2022-03-20T13:19:31Z</time>
      </trkpt>
      <trkpt lat="46.4818" lon="0.5348">
        <ele>135.835</ele>
        <time>2022-03-20T13:20:16Z</time>
      </trkpt>
      <trkpt lat="46.48186" lon="0.53473">
        <ele>135.89</ele>
        <time>2022-03-20T13:20:30Z</time>
      </trkpt>
      <trkpt lat="46.48191" lon="0.53467">
        <ele>135.917</ele>
        <time>2022-03-20T13:20:36Z</time>
      </trkpt>
      <trkpt lat="46.48195" lon="0.53458">
        <ele>135.933</ele>
        <time>2022-03-20T13:20:41Z</time>
      </trkpt>
      <trkpt lat="46.48199" lon="0.5345">
        <ele>135.949</ele>
        <time>2022-03-20T13:20:47Z</time>
      </trkpt>
      <trkpt lat="46.48204" lon="0.53442">
        <ele>135.965</ele>
        <time>2022-03-20T13:20:54Z</time>
      </trkpt>
      <trkpt lat="46.48209" lon="0.53435">
        <ele>135.986</ele>
        <time>2022-03-20T13:21:02Z</time>
      </trkpt>
      <trkpt lat="46.48213" lon="0.53427">
        <ele>136.002</ele>
        <time>2022-03-20T13:21:08Z</time>
      </trkpt>
      <trkpt lat="46.48218" lon="0.53419">
        <ele>136.022</ele>
        <time>2022-03-20T13:21:15Z</time>
      </trkpt>
      <trkpt lat="46.48222" lon="0.53411">
        <ele>136.038</ele>
        <time>2022-03-20T13:21:21Z</time>
      </trkpt>
      <trkpt lat="46.48226" lon="0.53403">
        <ele>136.05</ele>
        <time>2022-03-20T13:21:27Z</time>
      </trkpt>
      <trkpt lat="46.48229" lon="0.53394">
        <ele>136.061</ele>
        <time>2022-03-20T13:21:33Z</time>
      </trkpt>
      <trkpt lat="46.48232" lon="0.53386">
        <ele>136.064</ele>
        <time>2022-03-20T13:21:40Z</time>
      </trkpt>
      <trkpt lat="46.48236" lon="0.53378">
        <ele>136.058</ele>
        <time>2022-03-20T13:21:47Z</time>
      </trkpt>
      <trkpt lat="46.4824" lon="0.5337">
        <ele>136.049</ele>
        <time>2022-03-20T13:21:54Z</time>
      </trkpt>
      <trkpt lat="46.48244" lon="0.53361">
        <ele>136.042</ele>
        <time>2022-03-20T13:22:00Z</time>
      </trkpt>
      <trkpt lat="46.48249" lon="0.53355">
        <ele>136.037</ele>
        <time>2022-03-20T13:22:06Z</time>
      </trkpt>
      <trkpt lat="46.48254" lon="0.53347">
        <ele>136.032</ele>
        <time>2022-03-20T13:22:12Z</time>
      </trkpt>
      <trkpt lat="46.48258" lon="0.53339">
        <ele>136.021</ele>
        <time>2022-03-20T13:22:19Z</time>
      </trkpt>
      <trkpt lat="46.48262" lon="0.53331">
        <ele>135.995</ele>
        <time>2022-03-20T13:22:27Z</time>
      </trkpt>
      <trkpt lat="46.48267" lon="0.53324">
        <ele>135.968</ele>
        <time>2022-03-20T13:22:33Z</time>
      </trkpt>
      <trkpt lat="46.48272" lon="0.53315">
        <ele>135.933</ele>
        <time>2022-03-20T13:22:40Z</time>
      </trkpt>
      <trkpt lat="46.48276" lon="0.53308">
        <ele>135.902</ele>
        <time>2022-03-20T13:22:46Z</time>
      </trkpt>
      <trkpt lat="46.4828" lon="0.53299">
        <ele>135.868</ele>
        <time>2022-03-20T13:22:53Z</time>
      </trkpt>
      <trkpt lat="46.48284" lon="0.53292">
        <ele>135.837</ele>
        <time>2022-03-20T13:23:00Z</time>
      </trkpt>
      <trkpt lat="46.48288" lon="0.53282">
        <ele>135.807</ele>
        <time>2022-03-20T13:23:07Z</time>
      </trkpt>
      <trkpt lat="46.48292" lon="0.53274">
        <ele>135.771</ele>
        <time>2022-03-20T13:23:15Z</time>
      </trkpt>
      <trkpt lat="46.48298" lon="0.53279">
        <ele>135.713</ele>
        <time>2022-03-20T13:23:26Z</time>
      </trkpt>
      <trkpt lat="46.48302" lon="0.53287">
        <ele>135.664</ele>
        <time>2022-03-20T13:23:32Z</time>
      </trkpt>
      <trkpt lat="46.48304" lon="0.53296">
        <ele>135.559</ele>
        <time>2022-03-20T13:23:43Z</time>
      </trkpt>
      <trkpt lat="46.48304" lon="0.53306">
        <ele>135.515</ele>
        <time>2022-03-20T13:23:48Z</time>
      </trkpt>
      <trkpt lat="46.48311" lon="0.5332">
        <ele>135.093</ele>
        <time>2022-03-20T13:23:55Z</time>
      </trkpt>
      <trkpt lat="46.48316" lon="0.53326">
        <ele>134.794</ele>
        <time>2022-03-20T13:24:03Z</time>
      </trkpt>
      <trkpt lat="46.48321" lon="0.53336">
        <ele>134.669</ele>
        <time>2022-03-20T13:24:09Z</time>
      </trkpt>
      <trkpt lat="46.48327" lon="0.53341">
        <ele>134.251</ele>
        <time>2022-03-20T13:24:18Z</time>
      </trkpt>
      <trkpt lat="46.48331" lon="0.53351">
        <ele>133.911</ele>
        <time>2022-03-20T13:24:25Z</time>
      </trkpt>
      <trkpt lat="46.48334" lon="0.5336">
        <ele>133.568</ele>
        <time>2022-03-20T13:24:32Z</time>
      </trkpt>
      <trkpt lat="46.48339" lon="0.53368">
        <ele>133.186</ele>
        <time>2022-03-20T13:24:39Z</time>
      </trkpt>
      <trkpt lat="46.48343" lon="0.53376">
        <ele>132.559</ele>
        <time>2022-03-20T13:24:48Z</time>
      </trkpt>
      <trkpt lat="46.48342" lon="0.53386">
        <ele>131.665</ele>
        <time>2022-03-20T13:24:58Z</time>
      </trkpt>
      <trkpt lat="46.48338" lon="0.53395">
        <ele>131.022</ele>
        <time>2022-03-20T13:25:05Z</time>
      </trkpt>
      <trkpt lat="46.48334" lon="0.53404">
        <ele>130.292</ele>
        <time>2022-03-20T13:25:14Z</time>
      </trkpt>
      <trkpt lat="46.4833" lon="0.53412">
        <ele>129.87</ele>
        <time>2022-03-20T13:25:20Z</time>
      </trkpt>
      <trkpt lat="46.48324" lon="0.53418">
        <ele>129.421</ele>
        <time>2022-03-20T13:25:27Z</time>
      </trkpt>
      <trkpt lat="46.48319" lon="0.53425">
        <ele>129.011</ele>
        <time>2022-03-20T13:25:34Z</time>
      </trkpt>
      <trkpt lat="46.48314" lon="0.53431">
        <ele>128.593</ele>
        <time>2022-03-20T13:25:42Z</time>
      </trkpt>
      <trkpt lat="46.48309" lon="0.53438">
        <ele>128.154</ele>
        <time>2022-03-20T13:25:52Z</time>
      </trkpt>
      <trkpt lat="46.48305" lon="0.53447">
        <ele>127.944</ele>
        <time>2022-03-20T13:25:58Z</time>
      </trkpt>
      <trkpt lat="46.483" lon="0.53454">
        <ele>127.73</ele>
        <time>2022-03-20T13:26:05Z</time>
      </trkpt>
      <trkpt lat="46.48296" lon="0.53462">
        <ele>127.546</ele>
        <time>2022-03-20T13:26:12Z</time>
      </trkpt>
      <trkpt lat="46.48294" lon="0.53472">
        <ele>127.395</ele>
        <time>2022-03-20T13:26:20Z</time>
      </trkpt>
      <trkpt lat="46.48292" lon="0.53481">
        <ele>127.313</ele>
        <time>2022-03-20T13:26:27Z</time>
      </trkpt>
      <trkpt lat="46.48288" lon="0.5349">
        <ele>127.256</ele>
        <time>2022-03-20T13:26:35Z</time>
      </trkpt>
      <trkpt lat="46.48285" lon="0.53498">
        <ele>127.236</ele>
        <time>2022-03-20T13:26:41Z</time>
      </trkpt>
      <trkpt lat="46.48284" lon="0.53508">
        <ele>127.237</ele>
        <time>2022-03-20T13:26:48Z</time>
      </trkpt>
      <trkpt lat="46.48285" lon="0.53518">
        <ele>127.253</ele>
        <time>2022-03-20T13:26:55Z</time>
      </trkpt>
      <trkpt lat="46.48287" lon="0.53527">
        <ele>127.289</ele>
        <time>2022-03-20T13:27:02Z</time>
      </trkpt>
      <trkpt lat="46.48289" lon="0.53536">
        <ele>127.326</ele>
        <time>2022-03-20T13:27:08Z</time>
      </trkpt>
      <trkpt lat="46.48293" lon="0.53545">
        <ele>127.393</ele>
        <time>2022-03-20T13:27:16Z</time>
      </trkpt>
      <trkpt lat="46.48295" lon="0.53553">
        <ele>127.438</ele>
        <time>2022-03-20T13:27:22Z</time>
      </trkpt>
      <trkpt lat="46.48296" lon="0.53563">
        <ele>127.481</ele>
        <time>2022-03-20T13:27:28Z</time>
      </trkpt>
      <trkpt lat="46.48294" lon="0.53573">
        <ele>127.533</ele>
        <time>2022-03-20T13:27:34Z</time>
      </trkpt>
      <trkpt lat="46.48291" lon="0.53582">
        <ele>127.597</ele>
        <time>2022-03-20T13:27:41Z</time>
      </trkpt>
      <trkpt lat="46.48288" lon="0.53592">
        <ele>127.671</ele>
        <time>2022-03-20T13:27:48Z</time>
      </trkpt>
      <trkpt lat="46.48285" lon="0.53601">
        <ele>127.749</ele>
        <time>2022-03-20T13:27:55Z</time>
      </trkpt>
      <trkpt lat="46.48282" lon="0.5361">
        <ele>127.839</ele>
        <time>2022-03-20T13:28:03Z</time>
      </trkpt>
      <trkpt lat="46.48279" lon="0.53619">
        <ele>127.914</ele>
        <time>2022-03-20T13:28:10Z</time>
      </trkpt>
      <trkpt lat="46.48276" lon="0.53628">
        <ele>127.985</ele>
        <time>2022-03-20T13:28:17Z</time>
      </trkpt>
      <trkpt lat="46.48272" lon="0.53637">
        <ele>128.06</ele>
        <time>2022-03-20T13:28:24Z</time>
      </trkpt>
      <trkpt lat="46.48268" lon="0.53645">
        <ele>128.14</ele>
        <time>2022-03-20T13:28:31Z</time>
      </trkpt>
      <trkpt lat="46.48264" lon="0.53654">
        <ele>128.214</ele>
        <time>2022-03-20T13:28:39Z</time>
      </trkpt>
      <trkpt lat="46.48261" lon="0.53663">
        <ele>128.261</ele>
        <time>2022-03-20T13:28:45Z</time>
      </trkpt>
      <trkpt lat="46.48258" lon="0.53671">
        <ele>128.311</ele>
        <time>2022-03-20T13:28:52Z</time>
      </trkpt>
      <trkpt lat="46.48255" lon="0.53679">
        <ele>128.345</ele>
        <time>2022-03-20T13:28:58Z</time>
      </trkpt>
      <trkpt lat="46.48251" lon="0.53688">
        <ele>128.384</ele>
        <time>2022-03-20T13:29:06Z</time>
      </trkpt>
      <trkpt lat="46.48247" lon="0.53698">
        <ele>128.421</ele>
        <time>2022-03-20T13:29:13Z</time>
      </trkpt>
      <trkpt lat="46.48244" lon="0.53706">
        <ele>128.459</ele>
        <time>2022-03-20T13:29:20Z</time>
      </trkpt>
      <trkpt lat="46.48241" lon="0.53715">
        <ele>128.488</ele>
        <time>2022-03-20T13:29:26Z</time>
      </trkpt>
      <trkpt lat="46.48239" lon="0.53724">
        <ele>128.507</ele>
        <time>2022-03-20T13:29:31Z</time>
      </trkpt>
      <trkpt lat="46.48235" lon="0.53733">
        <ele>128.524</ele>
        <time>2022-03-20T13:29:38Z</time>
      </trkpt>
      <trkpt lat="46.48232" lon="0.53741">
        <ele>128.526</ele>
        <time>2022-03-20T13:29:45Z</time>
      </trkpt>
      <trkpt lat="46.48228" lon="0.5375">
        <ele>128.515</ele>
        <time>2022-03-20T13:29:53Z</time>
      </trkpt>
      <trkpt lat="46.48225" lon="0.53759">
        <ele>128.504</ele>
        <time>2022-03-20T13:29:59Z</time>
      </trkpt>
      <trkpt lat="46.48222" lon="0.53768">
        <ele>128.493</ele>
        <time>2022-03-20T13:30:05Z</time>
      </trkpt>
      <trkpt lat="46.48218" lon="0.53776">
        <ele>128.48</ele>
        <time>2022-03-20T13:30:12Z</time>
      </trkpt>
      <trkpt lat="46.48215" lon="0.53785">
        <ele>128.471</ele>
        <time>2022-03-20T13:30:18Z</time>
      </trkpt>
      <trkpt lat="46.48211" lon="0.53794">
        <ele>128.458</ele>
        <time>2022-03-20T13:30:26Z</time>
      </trkpt>
      <trkpt lat="46.48208" lon="0.53803">
        <ele>128.442</ele>
        <time>2022-03-20T13:30:32Z</time>
      </trkpt>
      <trkpt lat="46.48203" lon="0.53811">
        <ele>128.421</ele>
        <time>2022-03-20T13:30:39Z</time>
      </trkpt>
      <trkpt lat="46.482" lon="0.53821">
        <ele>128.392</ele>
        <time>2022-03-20T13:30:46Z</time>
      </trkpt>
      <trkpt lat="46.48197" lon="0.53831">
        <ele>128.366</ele>
        <time>2022-03-20T13:30:52Z</time>
      </trkpt>
      <trkpt lat="46.48194" lon="0.53841">
        <ele>128.336</ele>
        <time>2022-03-20T13:30:58Z</time>
      </trkpt>
      <trkpt lat="46.48191" lon="0.5385">
        <ele>128.305</ele>
        <time>2022-03-20T13:31:04Z</time>
      </trkpt>
      <trkpt lat="46.48188" lon="0.53859">
        <ele>128.278</ele>
        <time>2022-03-20T13:31:09Z</time>
      </trkpt>
      <trkpt lat="46.48184" lon="0.53868">
        <ele>128.236</ele>
        <time>2022-03-20T13:31:16Z</time>
      </trkpt>
      <trkpt lat="46.48181" lon="0.53877">
        <ele>128.19</ele>
        <time>2022-03-20T13:31:23Z</time>
      </trkpt>
      <trkpt lat="46.48177" lon="0.53885">
        <ele>128.141</ele>
        <time>2022-03-20T13:31:30Z</time>
      </trkpt>
      <trkpt lat="46.48173" lon="0.53895">
        <ele>128.087</ele>
        <time>2022-03-20T13:31:37Z</time>
      </trkpt>
      <trkpt lat="46.48169" lon="0.53903">
        <ele>128.029</ele>
        <time>2022-03-20T13:31:44Z</time>
      </trkpt>
      <trkpt lat="46.48165" lon="0.53913">
        <ele>127.966</ele>
        <time>2022-03-20T13:31:51Z</time>
      </trkpt>
      <trkpt lat="46.48162" lon="0.53922">
        <ele>127.915</ele>
        <time>2022-03-20T13:31:57Z</time>
      </trkpt>
      <trkpt lat="46.48159" lon="0.5393">
        <ele>127.867</ele>
        <time>2022-03-20T13:32:03Z</time>
      </trkpt>
      <trkpt lat="46.48155" lon="0.53939">
        <ele>127.811</ele>
        <time>2022-03-20T13:32:10Z</time>
      </trkpt>
      <trkpt lat="46.48151" lon="0.53948">
        <ele>127.765</ele>
        <time>2022-03-20T13:32:16Z</time>
      </trkpt>
      <trkpt lat="46.48147" lon="0.53957">
        <ele>127.714</ele>
        <time>2022-03-20T13:32:23Z</time>
      </trkpt>
      <trkpt lat="46.48143" lon="0.53965">
        <ele>127.669</ele>
        <time>2022-03-20T13:32:29Z</time>
      </trkpt>
      <trkpt lat="46.4814" lon="0.53974">
        <ele>127.623</ele>
        <time>2022-03-20T13:32:35Z</time>
      </trkpt>
      <trkpt lat="46.48136" lon="0.53983">
        <ele>127.571</ele>
        <time>2022-03-20T13:32:42Z</time>
      </trkpt>
      <trkpt lat="46.48133" lon="0.53992">
        <ele>127.52</ele>
        <time>2022-03-20T13:32:49Z</time>
      </trkpt>
      <trkpt lat="46.48129" lon="0.54002">
        <ele>127.477</ele>
        <time>2022-03-20T13:32:55Z</time>
      </trkpt>
      <trkpt lat="46.48125" lon="0.5401">
        <ele>127.431</ele>
        <time>2022-03-20T13:33:01Z</time>
      </trkpt>
      <trkpt lat="46.48121" lon="0.54018">
        <ele>127.368</ele>
        <time>2022-03-20T13:33:08Z</time>
      </trkpt>
      <trkpt lat="46.48118" lon="0.54026">
        <ele>127.313</ele>
        <time>2022-03-20T13:33:14Z</time>
      </trkpt>
      <trkpt lat="46.48115" lon="0.54035">
        <ele>127.247</ele>
        <time>2022-03-20T13:33:21Z</time>
      </trkpt>
      <trkpt lat="46.4811" lon="0.54044">
        <ele>127.18</ele>
        <time>2022-03-20T13:33:28Z</time>
      </trkpt>
      <trkpt lat="46.48107" lon="0.54054">
        <ele>127.112</ele>
        <time>2022-03-20T13:33:35Z</time>
      </trkpt>
      <trkpt lat="46.48105" lon="0.54063">
        <ele>127.044</ele>
        <time>2022-03-20T13:33:42Z</time>
      </trkpt>
      <trkpt lat="46.48102" lon="0.54073">
        <ele>126.972</ele>
        <time>2022-03-20T13:33:50Z</time>
      </trkpt>
      <trkpt lat="46.48098" lon="0.54081">
        <ele>126.92</ele>
        <time>2022-03-20T13:33:56Z</time>
      </trkpt>
      <trkpt lat="46.48096" lon="0.54091">
        <ele>126.87</ele>
        <time>2022-03-20T13:34:02Z</time>
      </trkpt>
      <trkpt lat="46.48093" lon="0.54099">
        <ele>126.821</ele>
        <time>2022-03-20T13:34:09Z</time>
      </trkpt>
      <trkpt lat="46.4809" lon="0.54108">
        <ele>126.772</ele>
        <time>2022-03-20T13:34:17Z</time>
      </trkpt>
      <trkpt lat="46.48085" lon="0.54117">
        <ele>126.733</ele>
        <time>2022-03-20T13:34:24Z</time>
      </trkpt>
      <trkpt lat="46.48081" lon="0.54125">
        <ele>126.692</ele>
        <time>2022-03-20T13:34:31Z</time>
      </trkpt>
      <trkpt lat="46.48077" lon="0.54134">
        <ele>126.644</ele>
        <time>2022-03-20T13:34:39Z</time>
      </trkpt>
      <trkpt lat="46.48075" lon="0.54143">
        <ele>126.609</ele>
        <time>2022-03-20T13:34:45Z</time>
      </trkpt>
      <trkpt lat="46.48072" lon="0.54153">
        <ele>126.577</ele>
        <time>2022-03-20T13:34:52Z</time>
      </trkpt>
      <trkpt lat="46.48069" lon="0.54163">
        <ele>126.554</ele>
        <time>2022-03-20T13:34:58Z</time>
      </trkpt>
      <trkpt lat="46.48068" lon="0.54173">
        <ele>126.533</ele>
        <time>2022-03-20T13:35:04Z</time>
      </trkpt>
      <trkpt lat="46.48067" lon="0.54183">
        <ele>126.514</ele>
        <time>2022-03-20T13:35:10Z</time>
      </trkpt>
      <trkpt lat="46.48066" lon="0.54193">
        <ele>126.49</ele>
        <time>2022-03-20T13:35:17Z</time>
      </trkpt>
      <trkpt lat="46.48068" lon="0.54203">
        <ele>126.462</ele>
        <time>2022-03-20T13:35:24Z</time>
      </trkpt>
      <trkpt lat="46.48069" lon="0.54213">
        <ele>126.432</ele>
        <time>2022-03-20T13:35:31Z</time>
      </trkpt>
      <trkpt lat="46.48072" lon="0.54223">
        <ele>126.397</ele>
        <time>2022-03-20T13:35:38Z</time>
      </trkpt>
      <trkpt lat="46.48075" lon="0.54232">
        <ele>126.363</ele>
        <time>2022-03-20T13:35:45Z</time>
      </trkpt>
      <trkpt lat="46.48079" lon="0.54241">
        <ele>126.322</ele>
        <time>2022-03-20T13:35:52Z</time>
      </trkpt>
      <trkpt lat="46.48083" lon="0.54249">
        <ele>126.278</ele>
        <time>2022-03-20T13:35:59Z</time>
      </trkpt>
      <trkpt lat="46.48088" lon="0.54257">
        <ele>126.232</ele>
        <time>2022-03-20T13:36:06Z</time>
      </trkpt>
      <trkpt lat="46.48092" lon="0.54265">
        <ele>126.185</ele>
        <time>2022-03-20T13:36:13Z</time>
      </trkpt>
      <trkpt lat="46.48097" lon="0.54273">
        <ele>126.136</ele>
        <time>2022-03-20T13:36:20Z</time>
      </trkpt>
      <trkpt lat="46.48102" lon="0.54281">
        <ele>126.084</ele>
        <time>2022-03-20T13:36:27Z</time>
      </trkpt>
      <trkpt lat="46.48108" lon="0.54288">
        <ele>126.033</ele>
        <time>2022-03-20T13:36:34Z</time>
      </trkpt>
      <trkpt lat="46.48113" lon="0.54293">
        <ele>125.987</ele>
        <time>2022-03-20T13:36:42Z</time>
      </trkpt>
      <trkpt lat="46.48117" lon="0.54301">
        <ele>125.938</ele>
        <time>2022-03-20T13:36:50Z</time>
      </trkpt>
      <trkpt lat="46.48121" lon="0.5431">
        <ele>125.869</ele>
        <time>2022-03-20T13:37:01Z</time>
      </trkpt>
      <trkpt lat="46.48127" lon="0.54317">
        <ele>125.819</ele>
        <time>2022-03-20T13:37:08Z</time>
      </trkpt>
      <trkpt lat="46.48133" lon="0.54323">
        <ele>125.782</ele>
        <time>2022-03-20T13:37:13Z</time>
      </trkpt>
      <trkpt lat="46.48138" lon="0.5433">
        <ele>125.737</ele>
        <time>2022-03-20T13:37:19Z</time>
      </trkpt>
      <trkpt lat="46.48143" lon="0.54336">
        <ele>125.691</ele>
        <time>2022-03-20T13:37:25Z</time>
      </trkpt>
      <trkpt lat="46.48149" lon="0.54342">
        <ele>125.641</ele>
        <time>2022-03-20T13:37:31Z</time>
      </trkpt>
      <trkpt lat="46.48155" lon="0.54349">
        <ele>125.581</ele>
        <time>2022-03-20T13:37:38Z</time>
      </trkpt>
      <trkpt lat="46.4816" lon="0.54357">
        <ele>125.52</ele>
        <time>2022-03-20T13:37:45Z</time>
      </trkpt>
      <trkpt lat="46.48162" lon="0.54367">
        <ele>125.459</ele>
        <time>2022-03-20T13:37:52Z</time>
      </trkpt>
      <trkpt lat="46.4816" lon="0.54378">
        <ele>125.398</ele>
        <time>2022-03-20T13:37:59Z</time>
      </trkpt>
      <trkpt lat="46.48158" lon="0.54387">
        <ele>125.346</ele>
        <time>2022-03-20T13:38:05Z</time>
      </trkpt>
      <trkpt lat="46.48156" lon="0.54397">
        <ele>125.298</ele>
        <time>2022-03-20T13:38:11Z</time>
      </trkpt>
      <trkpt lat="46.48152" lon="0.54405">
        <ele>125.247</ele>
        <time>2022-03-20T13:38:18Z</time>
      </trkpt>
      <trkpt lat="46.48148" lon="0.54414">
        <ele>125.209</ele>
        <time>2022-03-20T13:38:24Z</time>
      </trkpt>
      <trkpt lat="46.48145" lon="0.54423">
        <ele>125.173</ele>
        <time>2022-03-20T13:38:30Z</time>
      </trkpt>
      <trkpt lat="46.48142" lon="0.54432">
        <ele>125.128</ele>
        <time>2022-03-20T13:38:38Z</time>
      </trkpt>
      <trkpt lat="46.48138" lon="0.54441">
        <ele>125.093</ele>
        <time>2022-03-20T13:38:45Z</time>
      </trkpt>
      <trkpt lat="46.48135" lon="0.54449">
        <ele>125.063</ele>
        <time>2022-03-20T13:38:52Z</time>
      </trkpt>
      <trkpt lat="46.48132" lon="0.54458">
        <ele>125.036</ele>
        <time>2022-03-20T13:38:59Z</time>
      </trkpt>
      <trkpt lat="46.48129" lon="0.54467">
        <ele>125.011</ele>
        <time>2022-03-20T13:39:05Z</time>
      </trkpt>
      <trkpt lat="46.48125" lon="0.54475">
        <ele>124.986</ele>
        <time>2022-03-20T13:39:11Z</time>
      </trkpt>
      <trkpt lat="46.48122" lon="0.54485">
        <ele>124.956</ele>
        <time>2022-03-20T13:39:18Z</time>
      </trkpt>
      <trkpt lat="46.48121" lon="0.54495">
        <ele>124.919</ele>
        <time>2022-03-20T13:39:27Z</time>
      </trkpt>
      <trkpt lat="46.48118" lon="0.54505">
        <ele>124.892</ele>
        <time>2022-03-20T13:39:34Z</time>
      </trkpt>
      <trkpt lat="46.48116" lon="0.54516">
        <ele>124.87</ele>
        <time>2022-03-20T13:39:40Z</time>
      </trkpt>
      <trkpt lat="46.48113" lon="0.54526">
        <ele>124.849</ele>
        <time>2022-03-20T13:39:46Z</time>
      </trkpt>
      <trkpt lat="46.4811" lon="0.54535">
        <ele>124.825</ele>
        <time>2022-03-20T13:39:53Z</time>
      </trkpt>
      <trkpt lat="46.48108" lon="0.54545">
        <ele>124.805</ele>
        <time>2022-03-20T13:39:59Z</time>
      </trkpt>
      <trkpt lat="46.48107" lon="0.54555">
        <ele>124.784</ele>
        <time>2022-03-20T13:40:05Z</time>
      </trkpt>
      <trkpt lat="46.48106" lon="0.54565">
        <ele>124.758</ele>
        <time>2022-03-20T13:40:12Z</time>
      </trkpt>
      <trkpt lat="46.48104" lon="0.54575">
        <ele>124.731</ele>
        <time>2022-03-20T13:40:19Z</time>
      </trkpt>
      <trkpt lat="46.48103" lon="0.54585">
        <ele>124.698</ele>
        <time>2022-03-20T13:40:27Z</time>
      </trkpt>
      <trkpt lat="46.48102" lon="0.54596">
        <ele>124.672</ele>
        <time>2022-03-20T13:40:33Z</time>
      </trkpt>
      <trkpt lat="46.48101" lon="0.54606">
        <ele>124.647</ele>
        <time>2022-03-20T13:40:39Z</time>
      </trkpt>
      <trkpt lat="46.481" lon="0.54617">
        <ele>124.623</ele>
        <time>2022-03-20T13:40:46Z</time>
      </trkpt>
      <trkpt lat="46.48098" lon="0.54627">
        <ele>124.606</ele>
        <time>2022-03-20T13:40:52Z</time>
      </trkpt>
      <trkpt lat="46.48097" lon="0.54636">
        <ele>124.587</ele>
        <time>2022-03-20T13:40:59Z</time>
      </trkpt>
      <trkpt lat="46.48096" lon="0.54646">
        <ele>124.573</ele>
        <time>2022-03-20T13:41:05Z</time>
      </trkpt>
      <trkpt lat="46.48096" lon="0.54656">
        <ele>124.557</ele>
        <time>2022-03-20T13:41:12Z</time>
      </trkpt>
      <trkpt lat="46.48095" lon="0.54666">
        <ele>124.54</ele>
        <time>2022-03-20T13:41:19Z</time>
      </trkpt>
      <trkpt lat="46.48094" lon="0.54676">
        <ele>124.53</ele>
        <time>2022-03-20T13:41:24Z</time>
      </trkpt>
      <trkpt lat="46.48093" lon="0.54687">
        <ele>124.513</ele>
        <time>2022-03-20T13:41:31Z</time>
      </trkpt>
      <trkpt lat="46.48093" lon="0.54697">
        <ele>124.495</ele>
        <time>2022-03-20T13:41:37Z</time>
      </trkpt>
      <trkpt lat="46.48093" lon="0.54707">
        <ele>124.472</ele>
        <time>2022-03-20T13:41:44Z</time>
      </trkpt>
      <trkpt lat="46.48093" lon="0.54717">
        <ele>124.449</ele>
        <time>2022-03-20T13:41:50Z</time>
      </trkpt>
      <trkpt lat="46.48093" lon="0.54726">
        <ele>124.419</ele>
        <time>2022-03-20T13:41:57Z</time>
      </trkpt>
      <trkpt lat="46.48099" lon="0.54722">
        <ele>124.116</ele>
        <time>2022-03-20T13:42:48Z</time>
      </trkpt>
      <trkpt lat="46.48096" lon="0.5473">
        <ele>123.579</ele>
        <time>2022-03-20T13:43:54Z</time>
      </trkpt>
      <trkpt lat="46.48094" lon="0.5474">
        <ele>123.447</ele>
        <time>2022-03-20T13:44:01Z</time>
      </trkpt>
      <trkpt lat="46.48095" lon="0.5475">
        <ele>123.228</ele>
        <time>2022-03-20T13:44:19Z</time>
      </trkpt>
      <trkpt lat="46.48098" lon="0.5476">
        <ele>123.118</ele>
        <time>2022-03-20T13:44:26Z</time>
      </trkpt>
      <trkpt lat="46.48099" lon="0.54769">
        <ele>123.015</ele>
        <time>2022-03-20T13:44:33Z</time>
      </trkpt>
      <trkpt lat="46.481" lon="0.54778">
        <ele>122.902</ele>
        <time>2022-03-20T13:44:41Z</time>
      </trkpt>
      <trkpt lat="46.48103" lon="0.54788">
        <ele>122.791</ele>
        <time>2022-03-20T13:44:49Z</time>
      </trkpt>
      <trkpt lat="46.48104" lon="0.54797">
        <ele>122.697</ele>
        <time>2022-03-20T13:44:56Z</time>
      </trkpt>
      <trkpt lat="46.48106" lon="0.54807">
        <ele>122.591</ele>
        <time>2022-03-20T13:45:04Z</time>
      </trkpt>
      <trkpt lat="46.48109" lon="0.54816">
        <ele>122.499</ele>
        <time>2022-03-20T13:45:11Z</time>
      </trkpt>
      <trkpt lat="46.48111" lon="0.54825">
        <ele>122.41</ele>
        <time>2022-03-20T13:45:18Z</time>
      </trkpt>
      <trkpt lat="46.48114" lon="0.54835">
        <ele>122.322</ele>
        <time>2022-03-20T13:45:25Z</time>
      </trkpt>
      <trkpt lat="46.48117" lon="0.54844">
        <ele>122.238</ele>
        <time>2022-03-20T13:45:32Z</time>
      </trkpt>
      <trkpt lat="46.4812" lon="0.54853">
        <ele>122.157</ele>
        <time>2022-03-20T13:45:39Z</time>
      </trkpt>
      <trkpt lat="46.48123" lon="0.54864">
        <ele>122.07</ele>
        <time>2022-03-20T13:45:47Z</time>
      </trkpt>
      <trkpt lat="46.48125" lon="0.54874">
        <ele>122</ele>
        <time>2022-03-20T13:45:54Z</time>
      </trkpt>
      <trkpt lat="46.48127" lon="0.54884">
        <ele>121.929</ele>
        <time>2022-03-20T13:46:01Z</time>
      </trkpt>
      <trkpt lat="46.48129" lon="0.54892">
        <ele>121.868</ele>
        <time>2022-03-20T13:46:07Z</time>
      </trkpt>
      <trkpt lat="46.48132" lon="0.54901">
        <ele>121.797</ele>
        <time>2022-03-20T13:46:14Z</time>
      </trkpt>
      <trkpt lat="46.48133" lon="0.54911">
        <ele>121.728</ele>
        <time>2022-03-20T13:46:21Z</time>
      </trkpt>
      <trkpt lat="46.48135" lon="0.54921">
        <ele>121.652</ele>
        <time>2022-03-20T13:46:29Z</time>
      </trkpt>
      <trkpt lat="46.48137" lon="0.54931">
        <ele>121.578</ele>
        <time>2022-03-20T13:46:37Z</time>
      </trkpt>
      <trkpt lat="46.48139" lon="0.54941">
        <ele>121.503</ele>
        <time>2022-03-20T13:46:45Z</time>
      </trkpt>
      <trkpt lat="46.48142" lon="0.54951">
        <ele>121.434</ele>
        <time>2022-03-20T13:46:52Z</time>
      </trkpt>
      <trkpt lat="46.48144" lon="0.54962">
        <ele>121.367</ele>
        <time>2022-03-20T13:46:59Z</time>
      </trkpt>
      <trkpt lat="46.48146" lon="0.54971">
        <ele>121.311</ele>
        <time>2022-03-20T13:47:05Z</time>
      </trkpt>
      <trkpt lat="46.48148" lon="0.54981">
        <ele>121.25</ele>
        <time>2022-03-20T13:47:12Z</time>
      </trkpt>
      <trkpt lat="46.4815" lon="0.54991">
        <ele>121.183</ele>
        <time>2022-03-20T13:47:20Z</time>
      </trkpt>
      <trkpt lat="46.48152" lon="0.55002">
        <ele>121.128</ele>
        <time>2022-03-20T13:47:27Z</time>
      </trkpt>
      <trkpt lat="46.48155" lon="0.55011">
        <ele>121.075</ele>
        <time>2022-03-20T13:47:34Z</time>
      </trkpt>
      <trkpt lat="46.48156" lon="0.55021">
        <ele>121.025</ele>
        <time>2022-03-20T13:47:41Z</time>
      </trkpt>
      <trkpt lat="46.48159" lon="0.55031">
        <ele>120.977</ele>
        <time>2022-03-20T13:47:48Z</time>
      </trkpt>
      <trkpt lat="46.48161" lon="0.5504">
        <ele>120.932</ele>
        <time>2022-03-20T13:47:55Z</time>
      </trkpt>
      <trkpt lat="46.48163" lon="0.5505">
        <ele>120.891</ele>
        <time>2022-03-20T13:48:02Z</time>
      </trkpt>
      <trkpt lat="46.48165" lon="0.55059">
        <ele>120.852</ele>
        <time>2022-03-20T13:48:09Z</time>
      </trkpt>
      <trkpt lat="46.48168" lon="0.55069">
        <ele>120.818</ele>
        <time>2022-03-20T13:48:16Z</time>
      </trkpt>
      <trkpt lat="46.4817" lon="0.55079">
        <ele>120.782</ele>
        <time>2022-03-20T13:48:24Z</time>
      </trkpt>
      <trkpt lat="46.48172" lon="0.55088">
        <ele>120.755</ele>
        <time>2022-03-20T13:48:30Z</time>
      </trkpt>
      <trkpt lat="46.48175" lon="0.55098">
        <ele>120.719</ele>
        <time>2022-03-20T13:48:37Z</time>
      </trkpt>
      <trkpt lat="46.48177" lon="0.55107">
        <ele>120.678</ele>
        <time>2022-03-20T13:48:44Z</time>
      </trkpt>
      <trkpt lat="46.48179" lon="0.55117">
        <ele>120.629</ele>
        <time>2022-03-20T13:48:52Z</time>
      </trkpt>
      <trkpt lat="46.48182" lon="0.55127">
        <ele>120.585</ele>
        <time>2022-03-20T13:48:59Z</time>
      </trkpt>
      <trkpt lat="46.48184" lon="0.55136">
        <ele>120.542</ele>
        <time>2022-03-20T13:49:06Z</time>
      </trkpt>
      <trkpt lat="46.48186" lon="0.55146">
        <ele>120.5</ele>
        <time>2022-03-20T13:49:13Z</time>
      </trkpt>
      <trkpt lat="46.48188" lon="0.55156">
        <ele>120.459</ele>
        <time>2022-03-20T13:49:20Z</time>
      </trkpt>
      <trkpt lat="46.48191" lon="0.55165">
        <ele>120.425</ele>
        <time>2022-03-20T13:49:26Z</time>
      </trkpt>
      <trkpt lat="46.48193" lon="0.55174">
        <ele>120.387</ele>
        <time>2022-03-20T13:49:33Z</time>
      </trkpt>
      <trkpt lat="46.48195" lon="0.55184">
        <ele>120.344</ele>
        <time>2022-03-20T13:49:41Z</time>
      </trkpt>
      <trkpt lat="46.48198" lon="0.55194">
        <ele>120.306</ele>
        <time>2022-03-20T13:49:48Z</time>
      </trkpt>
      <trkpt lat="46.482" lon="0.55204">
        <ele>120.266</ele>
        <time>2022-03-20T13:49:55Z</time>
      </trkpt>
      <trkpt lat="46.48203" lon="0.55213">
        <ele>120.219</ele>
        <time>2022-03-20T13:50:03Z</time>
      </trkpt>
      <trkpt lat="46.48205" lon="0.55223">
        <ele>120.177</ele>
        <time>2022-03-20T13:50:10Z</time>
      </trkpt>
      <trkpt lat="46.48207" lon="0.55232">
        <ele>120.143</ele>
        <time>2022-03-20T13:50:16Z</time>
      </trkpt>
      <trkpt lat="46.48211" lon="0.5524">
        <ele>120.106</ele>
        <time>2022-03-20T13:50:23Z</time>
      </trkpt>
      <trkpt lat="46.48211" lon="0.5525">
        <ele>120.064</ele>
        <time>2022-03-20T13:50:40Z</time>
      </trkpt>
      <trkpt lat="46.48213" lon="0.55259">
        <ele>120.035</ele>
        <time>2022-03-20T13:50:53Z</time>
      </trkpt>
      <trkpt lat="46.48214" lon="0.55269">
        <ele>120.014</ele>
        <time>2022-03-20T13:50:59Z</time>
      </trkpt>
      <trkpt lat="46.48215" lon="0.55278">
        <ele>119.991</ele>
        <time>2022-03-20T13:51:05Z</time>
      </trkpt>
      <trkpt lat="46.48217" lon="0.55289">
        <ele>119.967</ele>
        <time>2022-03-20T13:51:11Z</time>
      </trkpt>
      <trkpt lat="46.48219" lon="0.55298">
        <ele>119.942</ele>
        <time>2022-03-20T13:51:17Z</time>
      </trkpt>
      <trkpt lat="46.48221" lon="0.55307">
        <ele>119.915</ele>
        <time>2022-03-20T13:51:23Z</time>
      </trkpt>
      <trkpt lat="46.48223" lon="0.55317">
        <ele>119.886</ele>
        <time>2022-03-20T13:51:29Z</time>
      </trkpt>
      <trkpt lat="46.48226" lon="0.55326">
        <ele>119.812</ele>
        <time>2022-03-20T13:51:47Z</time>
      </trkpt>
      <trkpt lat="46.48227" lon="0.55335">
        <ele>119.736</ele>
        <time>2022-03-20T13:52:04Z</time>
      </trkpt>
      <trkpt lat="46.4823" lon="0.55345">
        <ele>119.689</ele>
        <time>2022-03-20T13:52:10Z</time>
      </trkpt>
      <trkpt lat="46.48234" lon="0.55354">
        <ele>119.643</ele>
        <time>2022-03-20T13:52:16Z</time>
      </trkpt>
      <trkpt lat="46.48237" lon="0.55363">
        <ele>119.593</ele>
        <time>2022-03-20T13:52:23Z</time>
      </trkpt>
      <trkpt lat="46.48238" lon="0.55373">
        <ele>119.549</ele>
        <time>2022-03-20T13:52:29Z</time>
      </trkpt>
      <trkpt lat="46.48241" lon="0.55382">
        <ele>119.496</ele>
        <time>2022-03-20T13:52:36Z</time>
      </trkpt>
      <trkpt lat="46.48242" lon="0.55392">
        <ele>119.442</ele>
        <time>2022-03-20T13:52:43Z</time>
      </trkpt>
      <trkpt lat="46.48245" lon="0.55402">
        <ele>119.386</ele>
        <time>2022-03-20T13:52:50Z</time>
      </trkpt>
      <trkpt lat="46.48247" lon="0.55412">
        <ele>119.326</ele>
        <time>2022-03-20T13:52:57Z</time>
      </trkpt>
      <trkpt lat="46.48248" lon="0.55422">
        <ele>119.264</ele>
        <time>2022-03-20T13:53:04Z</time>
      </trkpt>
      <trkpt lat="46.4825" lon="0.55432">
        <ele>119.191</ele>
        <time>2022-03-20T13:53:12Z</time>
      </trkpt>
      <trkpt lat="46.48252" lon="0.55442">
        <ele>119.137</ele>
        <time>2022-03-20T13:53:18Z</time>
      </trkpt>
      <trkpt lat="46.48253" lon="0.55451">
        <ele>119.079</ele>
        <time>2022-03-20T13:53:25Z</time>
      </trkpt>
      <trkpt lat="46.48254" lon="0.5546">
        <ele>119.016</ele>
        <time>2022-03-20T13:53:33Z</time>
      </trkpt>
      <trkpt lat="46.48255" lon="0.5547">
        <ele>118.953</ele>
        <time>2022-03-20T13:53:41Z</time>
      </trkpt>
      <trkpt lat="46.48255" lon="0.5548">
        <ele>118.506</ele>
        <time>2022-03-20T13:55:33Z</time>
      </trkpt>
      <trkpt lat="46.48251" lon="0.55487">
        <ele>117.664</ele>
        <time>2022-03-20T13:59:34Z</time>
      </trkpt>
      <trkpt lat="46.48245" lon="0.55493">
        <ele>117.527</ele>
        <time>2022-03-20T13:59:43Z</time>
      </trkpt>
      <trkpt lat="46.48239" lon="0.55498">
        <ele>117.411</ele>
        <time>2022-03-20T13:59:52Z</time>
      </trkpt>
      <trkpt lat="46.48235" lon="0.55505">
        <ele>117.313</ele>
        <time>2022-03-20T13:59:59Z</time>
      </trkpt>
      <trkpt lat="46.48229" lon="0.55512">
        <ele>117.219</ele>
        <time>2022-03-20T14:00:06Z</time>
      </trkpt>
      <trkpt lat="46.48224" lon="0.55518">
        <ele>117.114</ele>
        <time>2022-03-20T14:00:14Z</time>
      </trkpt>
      <trkpt lat="46.48219" lon="0.55524">
        <ele>116.998</ele>
        <time>2022-03-20T14:00:23Z</time>
      </trkpt>
      <trkpt lat="46.48213" lon="0.55531">
        <ele>116.9</ele>
        <time>2022-03-20T14:00:31Z</time>
      </trkpt>
      <trkpt lat="46.48208" lon="0.55537">
        <ele>116.797</ele>
        <time>2022-03-20T14:00:40Z</time>
      </trkpt>
      <trkpt lat="46.48202" lon="0.55542">
        <ele>116.709</ele>
        <time>2022-03-20T14:00:48Z</time>
      </trkpt>
      <trkpt lat="46.48198" lon="0.55549">
        <ele>116.614</ele>
        <time>2022-03-20T14:00:57Z</time>
      </trkpt>
      <trkpt lat="46.48193" lon="0.55556">
        <ele>116.518</ele>
        <time>2022-03-20T14:01:06Z</time>
      </trkpt>
      <trkpt lat="46.48188" lon="0.55563">
        <ele>116.389</ele>
        <time>2022-03-20T14:01:19Z</time>
      </trkpt>
      <trkpt lat="46.48183" lon="0.55568">
        <ele>116.291</ele>
        <time>2022-03-20T14:01:28Z</time>
      </trkpt>
      <trkpt lat="46.48176" lon="0.55573">
        <ele>116.206</ele>
        <time>2022-03-20T14:01:36Z</time>
      </trkpt>
      <trkpt lat="46.48172" lon="0.55581">
        <ele>116.133</ele>
        <time>2022-03-20T14:01:43Z</time>
      </trkpt>
      <trkpt lat="46.48167" lon="0.55587">
        <ele>116.061</ele>
        <time>2022-03-20T14:01:50Z</time>
      </trkpt>
      <trkpt lat="46.48161" lon="0.55594">
        <ele>115.989</ele>
        <time>2022-03-20T14:01:57Z</time>
      </trkpt>
      <trkpt lat="46.48156" lon="0.556">
        <ele>115.916</ele>
        <time>2022-03-20T14:02:04Z</time>
      </trkpt>
      <trkpt lat="46.48151" lon="0.55607">
        <ele>115.851</ele>
        <time>2022-03-20T14:02:10Z</time>
      </trkpt>
      <trkpt lat="46.48146" lon="0.55613">
        <ele>115.774</ele>
        <time>2022-03-20T14:02:17Z</time>
      </trkpt>
      <trkpt lat="46.4814" lon="0.55619">
        <ele>115.686</ele>
        <time>2022-03-20T14:02:25Z</time>
      </trkpt>
      <trkpt lat="46.48132" lon="0.55623">
        <ele>115.608</ele>
        <time>2022-03-20T14:02:32Z</time>
      </trkpt>
      <trkpt lat="46.48126" lon="0.55627">
        <ele>115.525</ele>
        <time>2022-03-20T14:02:40Z</time>
      </trkpt>
      <trkpt lat="46.48119" lon="0.55631">
        <ele>115.444</ele>
        <time>2022-03-20T14:02:48Z</time>
      </trkpt>
      <trkpt lat="46.48112" lon="0.55633">
        <ele>115.361</ele>
        <time>2022-03-20T14:02:56Z</time>
      </trkpt>
      <trkpt lat="46.48106" lon="0.55637">
        <ele>115.28</ele>
        <time>2022-03-20T14:03:04Z</time>
      </trkpt>
      <trkpt lat="46.481" lon="0.55642">
        <ele>115.23</ele>
        <time>2022-03-20T14:03:09Z</time>
      </trkpt>
      <trkpt lat="46.48094" lon="0.55647">
        <ele>115.156</ele>
        <time>2022-03-20T14:03:17Z</time>
      </trkpt>
      <trkpt lat="46.48087" lon="0.5565">
        <ele>115.083</ele>
        <time>2022-03-20T14:03:25Z</time>
      </trkpt>
      <trkpt lat="46.48081" lon="0.55655">
        <ele>115.007</ele>
        <time>2022-03-20T14:03:33Z</time>
      </trkpt>
      <trkpt lat="46.48075" lon="0.5566">
        <ele>114.925</ele>
        <time>2022-03-20T14:03:41Z</time>
      </trkpt>
      <trkpt lat="46.48069" lon="0.55665">
        <ele>114.851</ele>
        <time>2022-03-20T14:03:48Z</time>
      </trkpt>
      <trkpt lat="46.48063" lon="0.55671">
        <ele>114.775</ele>
        <time>2022-03-20T14:03:55Z</time>
      </trkpt>
      <trkpt lat="46.48057" lon="0.55676">
        <ele>114.697</ele>
        <time>2022-03-20T14:04:02Z</time>
      </trkpt>
      <trkpt lat="46.4805" lon="0.55682">
        <ele>114.618</ele>
        <time>2022-03-20T14:04:09Z</time>
      </trkpt>
      <trkpt lat="46.48044" lon="0.55685">
        <ele>114.538</ele>
        <time>2022-03-20T14:04:16Z</time>
      </trkpt>
      <trkpt lat="46.48038" lon="0.55689">
        <ele>114.454</ele>
        <time>2022-03-20T14:04:23Z</time>
      </trkpt>
      <trkpt lat="46.48031" lon="0.55696">
        <ele>114.374</ele>
        <time>2022-03-20T14:04:30Z</time>
      </trkpt>
      <trkpt lat="46.48025" lon="0.557">
        <ele>114.286</ele>
        <time>2022-03-20T14:04:38Z</time>
      </trkpt>
      <trkpt lat="46.48019" lon="0.55705">
        <ele>114.208</ele>
        <time>2022-03-20T14:04:45Z</time>
      </trkpt>
      <trkpt lat="46.48013" lon="0.55711">
        <ele>114.13</ele>
        <time>2022-03-20T14:04:52Z</time>
      </trkpt>
      <trkpt lat="46.48007" lon="0.55717">
        <ele>114.054</ele>
        <time>2022-03-20T14:04:59Z</time>
      </trkpt>
      <trkpt lat="46.48001" lon="0.55722">
        <ele>113.981</ele>
        <time>2022-03-20T14:05:06Z</time>
      </trkpt>
      <trkpt lat="46.47995" lon="0.55727">
        <ele>113.909</ele>
        <time>2022-03-20T14:05:13Z</time>
      </trkpt>
      <trkpt lat="46.47989" lon="0.55732">
        <ele>113.836</ele>
        <time>2022-03-20T14:05:20Z</time>
      </trkpt>
      <trkpt lat="46.47983" lon="0.55737">
        <ele>113.75</ele>
        <time>2022-03-20T14:05:28Z</time>
      </trkpt>
      <trkpt lat="46.47977" lon="0.55742">
        <ele>113.674</ele>
        <time>2022-03-20T14:05:35Z</time>
      </trkpt>
      <trkpt lat="46.47971" lon="0.55749">
        <ele>113.587</ele>
        <time>2022-03-20T14:05:43Z</time>
      </trkpt>
      <trkpt lat="46.47965" lon="0.55753">
        <ele>113.511</ele>
        <time>2022-03-20T14:05:50Z</time>
      </trkpt>
      <trkpt lat="46.47959" lon="0.55758">
        <ele>113.446</ele>
        <time>2022-03-20T14:05:56Z</time>
      </trkpt>
      <trkpt lat="46.47953" lon="0.55763">
        <ele>113.367</ele>
        <time>2022-03-20T14:06:03Z</time>
      </trkpt>
      <trkpt lat="46.47947" lon="0.55768">
        <ele>113.275</ele>
        <time>2022-03-20T14:06:11Z</time>
      </trkpt>
      <trkpt lat="46.47941" lon="0.55774">
        <ele>113.192</ele>
        <time>2022-03-20T14:06:18Z</time>
      </trkpt>
      <trkpt lat="46.47935" lon="0.5578">
        <ele>113.109</ele>
        <time>2022-03-20T14:06:25Z</time>
      </trkpt>
      <trkpt lat="46.4793" lon="0.55787">
        <ele>113.023</ele>
        <time>2022-03-20T14:06:32Z</time>
      </trkpt>
      <trkpt lat="46.47925" lon="0.55794">
        <ele>112.953</ele>
        <time>2022-03-20T14:06:38Z</time>
      </trkpt>
      <trkpt lat="46.47919" lon="0.55799">
        <ele>112.868</ele>
        <time>2022-03-20T14:06:45Z</time>
      </trkpt>
      <trkpt lat="46.47914" lon="0.55806">
        <ele>112.766</ele>
        <time>2022-03-20T14:06:53Z</time>
      </trkpt>
      <trkpt lat="46.4791" lon="0.55815">
        <ele>112.675</ele>
        <time>2022-03-20T14:07:00Z</time>
      </trkpt>
      <trkpt lat="46.47905" lon="0.55822">
        <ele>112.584</ele>
        <time>2022-03-20T14:07:07Z</time>
      </trkpt>
      <trkpt lat="46.479" lon="0.5583">
        <ele>112.478</ele>
        <time>2022-03-20T14:07:15Z</time>
      </trkpt>
      <trkpt lat="46.47896" lon="0.55838">
        <ele>112.385</ele>
        <time>2022-03-20T14:07:22Z</time>
      </trkpt>
      <trkpt lat="46.47892" lon="0.55846">
        <ele>112.294</ele>
        <time>2022-03-20T14:07:29Z</time>
      </trkpt>
      <trkpt lat="46.47889" lon="0.55854">
        <ele>112.192</ele>
        <time>2022-03-20T14:07:37Z</time>
      </trkpt>
      <trkpt lat="46.47884" lon="0.55863">
        <ele>112.102</ele>
        <time>2022-03-20T14:07:44Z</time>
      </trkpt>
      <trkpt lat="46.4788" lon="0.55871">
        <ele>112.011</ele>
        <time>2022-03-20T14:07:51Z</time>
      </trkpt>
      <trkpt lat="46.47876" lon="0.55879">
        <ele>111.919</ele>
        <time>2022-03-20T14:07:58Z</time>
      </trkpt>
      <trkpt lat="46.47873" lon="0.55888">
        <ele>111.829</ele>
        <time>2022-03-20T14:08:05Z</time>
      </trkpt>
      <trkpt lat="46.47869" lon="0.55896">
        <ele>111.741</ele>
        <time>2022-03-20T14:08:12Z</time>
      </trkpt>
      <trkpt lat="46.47866" lon="0.55904">
        <ele>111.654</ele>
        <time>2022-03-20T14:08:19Z</time>
      </trkpt>
      <trkpt lat="46.47863" lon="0.55913">
        <ele>111.566</ele>
        <time>2022-03-20T14:08:26Z</time>
      </trkpt>
      <trkpt lat="46.47858" lon="0.55921">
        <ele>111.466</ele>
        <time>2022-03-20T14:08:34Z</time>
      </trkpt>
      <trkpt lat="46.47854" lon="0.5593">
        <ele>111.38</ele>
        <time>2022-03-20T14:08:41Z</time>
      </trkpt>
      <trkpt lat="46.47851" lon="0.55938">
        <ele>111.295</ele>
        <time>2022-03-20T14:08:48Z</time>
      </trkpt>
      <trkpt lat="46.47845" lon="0.55945">
        <ele>111.19</ele>
        <time>2022-03-20T14:08:57Z</time>
      </trkpt>
      <trkpt lat="46.47839" lon="0.55951">
        <ele>111.102</ele>
        <time>2022-03-20T14:09:05Z</time>
      </trkpt>
      <trkpt lat="46.47833" lon="0.55956">
        <ele>111.04</ele>
        <time>2022-03-20T14:09:11Z</time>
      </trkpt>
      <trkpt lat="46.47827" lon="0.5596">
        <ele>110.973</ele>
        <time>2022-03-20T14:09:18Z</time>
      </trkpt>
      <trkpt lat="46.4782" lon="0.55964">
        <ele>110.907</ele>
        <time>2022-03-20T14:09:25Z</time>
      </trkpt>
      <trkpt lat="46.47814" lon="0.55963">
        <ele>110.842</ele>
        <time>2022-03-20T14:09:32Z</time>
      </trkpt>
      <trkpt lat="46.47806" lon="0.55963">
        <ele>110.767</ele>
        <time>2022-03-20T14:09:40Z</time>
      </trkpt>
      <trkpt lat="46.478" lon="0.55964">
        <ele>110.69</ele>
        <time>2022-03-20T14:09:48Z</time>
      </trkpt>
      <trkpt lat="46.47793" lon="0.55966">
        <ele>110.624</ele>
        <time>2022-03-20T14:09:55Z</time>
      </trkpt>
      <trkpt lat="46.47786" lon="0.55966">
        <ele>110.558</ele>
        <time>2022-03-20T14:10:02Z</time>
      </trkpt>
      <trkpt lat="46.4778" lon="0.55967">
        <ele>110.492</ele>
        <time>2022-03-20T14:10:09Z</time>
      </trkpt>
      <trkpt lat="46.47773" lon="0.55968">
        <ele>110.427</ele>
        <time>2022-03-20T14:10:16Z</time>
      </trkpt>
      <trkpt lat="46.47766" lon="0.55969">
        <ele>110.365</ele>
        <time>2022-03-20T14:10:23Z</time>
      </trkpt>
      <trkpt lat="46.47759" lon="0.55969">
        <ele>110.308</ele>
        <time>2022-03-20T14:10:30Z</time>
      </trkpt>
      <trkpt lat="46.47752" lon="0.5597">
        <ele>110.263</ele>
        <time>2022-03-20T14:10:36Z</time>
      </trkpt>
      <trkpt lat="46.47746" lon="0.55971">
        <ele>110.221</ele>
        <time>2022-03-20T14:10:42Z</time>
      </trkpt>
      <trkpt lat="46.47739" lon="0.5597">
        <ele>110.181</ele>
        <time>2022-03-20T14:10:48Z</time>
      </trkpt>
      <trkpt lat="46.47732" lon="0.55969">
        <ele>110.131</ele>
        <time>2022-03-20T14:10:56Z</time>
      </trkpt>
      <trkpt lat="46.47726" lon="0.5597">
        <ele>110.086</ele>
        <time>2022-03-20T14:11:04Z</time>
      </trkpt>
      <trkpt lat="46.47719" lon="0.55971">
        <ele>110.043</ele>
        <time>2022-03-20T14:11:12Z</time>
      </trkpt>
      <trkpt lat="46.47712" lon="0.55972">
        <ele>110.001</ele>
        <time>2022-03-20T14:11:20Z</time>
      </trkpt>
      <trkpt lat="46.47705" lon="0.55972">
        <ele>109.961</ele>
        <time>2022-03-20T14:11:28Z</time>
      </trkpt>
      <trkpt lat="46.47698" lon="0.55973">
        <ele>109.921</ele>
        <time>2022-03-20T14:11:36Z</time>
      </trkpt>
      <trkpt lat="46.47692" lon="0.55974">
        <ele>109.887</ele>
        <time>2022-03-20T14:11:43Z</time>
      </trkpt>
      <trkpt lat="46.47685" lon="0.55975">
        <ele>109.863</ele>
        <time>2022-03-20T14:11:49Z</time>
      </trkpt>
      <trkpt lat="46.47678" lon="0.55974">
        <ele>109.836</ele>
        <time>2022-03-20T14:11:57Z</time>
      </trkpt>
      <trkpt lat="46.47671" lon="0.55974">
        <ele>109.817</ele>
        <time>2022-03-20T14:12:05Z</time>
      </trkpt>
      <trkpt lat="46.47664" lon="0.55975">
        <ele>109.807</ele>
        <time>2022-03-20T14:12:12Z</time>
      </trkpt>
      <trkpt lat="46.47657" lon="0.55975">
        <ele>109.804</ele>
        <time>2022-03-20T14:12:19Z</time>
      </trkpt>
      <trkpt lat="46.4765" lon="0.55976">
        <ele>109.807</ele>
        <time>2022-03-20T14:12:27Z</time>
      </trkpt>
      <trkpt lat="46.47643" lon="0.55977">
        <ele>109.815</ele>
        <time>2022-03-20T14:12:34Z</time>
      </trkpt>
      <trkpt lat="46.47636" lon="0.55976">
        <ele>109.824</ele>
        <time>2022-03-20T14:12:40Z</time>
      </trkpt>
      <trkpt lat="46.47629" lon="0.55977">
        <ele>109.837</ele>
        <time>2022-03-20T14:12:47Z</time>
      </trkpt>
      <trkpt lat="46.47622" lon="0.55976">
        <ele>109.853</ele>
        <time>2022-03-20T14:12:55Z</time>
      </trkpt>
      <trkpt lat="46.47615" lon="0.55974">
        <ele>109.867</ele>
        <time>2022-03-20T14:13:02Z</time>
      </trkpt>
      <trkpt lat="46.47609" lon="0.55972">
        <ele>109.927</ele>
        <time>2022-03-20T14:13:38Z</time>
      </trkpt>
      <trkpt lat="46.47608" lon="0.55962">
        <ele>110.066</ele>
        <time>2022-03-20T14:14:07Z</time>
      </trkpt>
      <trkpt lat="46.47609" lon="0.55952">
        <ele>110.145</ele>
        <time>2022-03-20T14:14:16Z</time>
      </trkpt>
      <trkpt lat="46.47611" lon="0.55942">
        <ele>110.222</ele>
        <time>2022-03-20T14:14:25Z</time>
      </trkpt>
      <trkpt lat="46.47611" lon="0.55932">
        <ele>110.291</ele>
        <time>2022-03-20T14:14:33Z</time>
      </trkpt>
      <trkpt lat="46.47612" lon="0.55922">
        <ele>110.359</ele>
        <time>2022-03-20T14:14:41Z</time>
      </trkpt>
      <trkpt lat="46.47612" lon="0.55912">
        <ele>110.415</ele>
        <time>2022-03-20T14:14:48Z</time>
      </trkpt>
      <trkpt lat="46.47612" lon="0.55902">
        <ele>110.47</ele>
        <time>2022-03-20T14:14:55Z</time>
      </trkpt>
      <trkpt lat="46.47612" lon="0.55891">
        <ele>110.524</ele>
        <time>2022-03-20T14:15:02Z</time>
      </trkpt>
      <trkpt lat="46.47612" lon="0.55881">
        <ele>110.577</ele>
        <time>2022-03-20T14:15:09Z</time>
      </trkpt>
      <trkpt lat="46.47613" lon="0.55871">
        <ele>110.629</ele>
        <time>2022-03-20T14:15:16Z</time>
      </trkpt>
      <trkpt lat="46.47614" lon="0.55861">
        <ele>110.681</ele>
        <time>2022-03-20T14:15:23Z</time>
      </trkpt>
      <trkpt lat="46.47615" lon="0.55852">
        <ele>110.739</ele>
        <time>2022-03-20T14:15:31Z</time>
      </trkpt>
      <trkpt lat="46.47615" lon="0.55842">
        <ele>110.794</ele>
        <time>2022-03-20T14:15:39Z</time>
      </trkpt>
      <trkpt lat="46.47615" lon="0.55831">
        <ele>110.851</ele>
        <time>2022-03-20T14:15:48Z</time>
      </trkpt>
      <trkpt lat="46.47615" lon="0.55821">
        <ele>110.9</ele>
        <time>2022-03-20T14:15:56Z</time>
      </trkpt>
      <trkpt lat="46.47617" lon="0.55812">
        <ele>110.947</ele>
        <time>2022-03-20T14:16:04Z</time>
      </trkpt>
      <trkpt lat="46.47618" lon="0.55802">
        <ele>110.984</ele>
        <time>2022-03-20T14:16:11Z</time>
      </trkpt>
      <trkpt lat="46.47619" lon="0.55792">
        <ele>111.03</ele>
        <time>2022-03-20T14:16:20Z</time>
      </trkpt>
      <trkpt lat="46.47619" lon="0.55782">
        <ele>111.058</ele>
        <time>2022-03-20T14:16:26Z</time>
      </trkpt>
      <trkpt lat="46.4762" lon="0.55772">
        <ele>111.09</ele>
        <time>2022-03-20T14:16:33Z</time>
      </trkpt>
      <trkpt lat="46.4762" lon="0.55762">
        <ele>111.122</ele>
        <time>2022-03-20T14:16:40Z</time>
      </trkpt>
      <trkpt lat="46.47621" lon="0.55753">
        <ele>111.157</ele>
        <time>2022-03-20T14:16:48Z</time>
      </trkpt>
      <trkpt lat="46.47621" lon="0.55743">
        <ele>111.189</ele>
        <time>2022-03-20T14:16:55Z</time>
      </trkpt>
      <trkpt lat="46.47621" lon="0.55733">
        <ele>111.219</ele>
        <time>2022-03-20T14:17:02Z</time>
      </trkpt>
      <trkpt lat="46.47622" lon="0.55723">
        <ele>111.251</ele>
        <time>2022-03-20T14:17:10Z</time>
      </trkpt>
      <trkpt lat="46.47624" lon="0.55713">
        <ele>111.278</ele>
        <time>2022-03-20T14:17:17Z</time>
      </trkpt>
      <trkpt lat="46.47624" lon="0.55703">
        <ele>111.306</ele>
        <time>2022-03-20T14:17:24Z</time>
      </trkpt>
      <trkpt lat="46.47626" lon="0.55693">
        <ele>111.334</ele>
        <time>2022-03-20T14:17:31Z</time>
      </trkpt>
      <trkpt lat="46.47625" lon="0.55683">
        <ele>111.359</ele>
        <time>2022-03-20T14:17:37Z</time>
      </trkpt>
      <trkpt lat="46.47624" lon="0.55672">
        <ele>111.389</ele>
        <time>2022-03-20T14:17:44Z</time>
      </trkpt>
      <trkpt lat="46.47624" lon="0.55661">
        <ele>111.423</ele>
        <time>2022-03-20T14:17:51Z</time>
      </trkpt>
      <trkpt lat="46.47623" lon="0.55652">
        <ele>111.458</ele>
        <time>2022-03-20T14:17:58Z</time>
      </trkpt>
      <trkpt lat="46.47623" lon="0.55642">
        <ele>111.49</ele>
        <time>2022-03-20T14:18:04Z</time>
      </trkpt>
      <trkpt lat="46.47623" lon="0.55632">
        <ele>111.537</ele>
        <time>2022-03-20T14:18:12Z</time>
      </trkpt>
      <trkpt lat="46.47623" lon="0.55622">
        <ele>111.581</ele>
        <time>2022-03-20T14:18:19Z</time>
      </trkpt>
      <trkpt lat="46.47624" lon="0.55612">
        <ele>111.628</ele>
        <time>2022-03-20T14:18:26Z</time>
      </trkpt>
      <trkpt lat="46.47624" lon="0.55602">
        <ele>111.677</ele>
        <time>2022-03-20T14:18:33Z</time>
      </trkpt>
      <trkpt lat="46.47625" lon="0.55593">
        <ele>111.728</ele>
        <time>2022-03-20T14:18:40Z</time>
      </trkpt>
      <trkpt lat="46.47624" lon="0.55582">
        <ele>111.779</ele>
        <time>2022-03-20T14:18:47Z</time>
      </trkpt>
      <trkpt lat="46.47624" lon="0.55571">
        <ele>111.839</ele>
        <time>2022-03-20T14:18:55Z</time>
      </trkpt>
      <trkpt lat="46.47624" lon="0.55562">
        <ele>111.884</ele>
        <time>2022-03-20T14:19:01Z</time>
      </trkpt>
      <trkpt lat="46.47624" lon="0.55551">
        <ele>111.944</ele>
        <time>2022-03-20T14:19:09Z</time>
      </trkpt>
      <trkpt lat="46.47625" lon="0.55541">
        <ele>111.995</ele>
        <time>2022-03-20T14:19:16Z</time>
      </trkpt>
      <trkpt lat="46.47625" lon="0.55532">
        <ele>112.051</ele>
        <time>2022-03-20T14:19:24Z</time>
      </trkpt>
      <trkpt lat="46.47626" lon="0.55522">
        <ele>112.096</ele>
        <time>2022-03-20T14:19:31Z</time>
      </trkpt>
      <trkpt lat="46.47626" lon="0.55511">
        <ele>112.143</ele>
        <time>2022-03-20T14:19:39Z</time>
      </trkpt>
      <trkpt lat="46.47626" lon="0.55501">
        <ele>112.181</ele>
        <time>2022-03-20T14:19:46Z</time>
      </trkpt>
      <trkpt lat="46.47626" lon="0.55491">
        <ele>112.221</ele>
        <time>2022-03-20T14:19:53Z</time>
      </trkpt>
      <trkpt lat="46.47624" lon="0.55482">
        <ele>112.25</ele>
        <time>2022-03-20T14:19:58Z</time>
      </trkpt>
      <trkpt lat="46.47623" lon="0.55471">
        <ele>112.294</ele>
        <time>2022-03-20T14:20:05Z</time>
      </trkpt>
      <trkpt lat="46.47622" lon="0.55461">
        <ele>112.34</ele>
        <time>2022-03-20T14:20:12Z</time>
      </trkpt>
      <trkpt lat="46.47621" lon="0.5545">
        <ele>112.385</ele>
        <time>2022-03-20T14:20:19Z</time>
      </trkpt>
      <trkpt lat="46.4762" lon="0.55441">
        <ele>112.426</ele>
        <time>2022-03-20T14:20:25Z</time>
      </trkpt>
      <trkpt lat="46.47618" lon="0.5543">
        <ele>112.467</ele>
        <time>2022-03-20T14:20:31Z</time>
      </trkpt>
      <trkpt lat="46.47617" lon="0.55419">
        <ele>112.515</ele>
        <time>2022-03-20T14:20:38Z</time>
      </trkpt>
      <trkpt lat="46.47617" lon="0.55409">
        <ele>112.568</ele>
        <time>2022-03-20T14:20:46Z</time>
      </trkpt>
      <trkpt lat="46.47617" lon="0.55399">
        <ele>112.623</ele>
        <time>2022-03-20T14:20:54Z</time>
      </trkpt>
      <trkpt lat="46.47615" lon="0.55389">
        <ele>112.664</ele>
        <time>2022-03-20T14:21:00Z</time>
      </trkpt>
      <trkpt lat="46.47614" lon="0.5538">
        <ele>112.704</ele>
        <time>2022-03-20T14:21:06Z</time>
      </trkpt>
      <trkpt lat="46.47613" lon="0.5537">
        <ele>112.75</ele>
        <time>2022-03-20T14:21:13Z</time>
      </trkpt>
      <trkpt lat="46.47611" lon="0.55361">
        <ele>112.793</ele>
        <time>2022-03-20T14:21:20Z</time>
      </trkpt>
      <trkpt lat="46.47608" lon="0.55353">
        <ele>112.833</ele>
        <time>2022-03-20T14:21:27Z</time>
      </trkpt>
      <trkpt lat="46.47606" lon="0.55343">
        <ele>112.871</ele>
        <time>2022-03-20T14:21:35Z</time>
      </trkpt>
      <trkpt lat="46.47606" lon="0.55332">
        <ele>112.905</ele>
        <time>2022-03-20T14:21:43Z</time>
      </trkpt>
      <trkpt lat="46.47607" lon="0.55322">
        <ele>112.93</ele>
        <time>2022-03-20T14:21:50Z</time>
      </trkpt>
      <trkpt lat="46.47606" lon="0.55312">
        <ele>112.952</ele>
        <time>2022-03-20T14:21:57Z</time>
      </trkpt>
      <trkpt lat="46.47605" lon="0.55301">
        <ele>112.974</ele>
        <time>2022-03-20T14:22:04Z</time>
      </trkpt>
      <trkpt lat="46.47604" lon="0.55292">
        <ele>112.994</ele>
        <time>2022-03-20T14:22:10Z</time>
      </trkpt>
      <trkpt lat="46.47603" lon="0.55281">
        <ele>113.021</ele>
        <time>2022-03-20T14:22:17Z</time>
      </trkpt>
      <trkpt lat="46.47602" lon="0.55272">
        <ele>113.051</ele>
        <time>2022-03-20T14:22:24Z</time>
      </trkpt>
      <trkpt lat="46.47602" lon="0.55262">
        <ele>113.078</ele>
        <time>2022-03-20T14:22:30Z</time>
      </trkpt>
      <trkpt lat="46.47601" lon="0.55253">
        <ele>113.113</ele>
        <time>2022-03-20T14:22:37Z</time>
      </trkpt>
      <trkpt lat="46.47599" lon="0.55243">
        <ele>113.152</ele>
        <time>2022-03-20T14:22:44Z</time>
      </trkpt>
      <trkpt lat="46.47597" lon="0.55234">
        <ele>113.189</ele>
        <time>2022-03-20T14:22:50Z</time>
      </trkpt>
      <trkpt lat="46.47596" lon="0.55224">
        <ele>113.237</ele>
        <time>2022-03-20T14:22:57Z</time>
      </trkpt>
      <trkpt lat="46.47595" lon="0.55214">
        <ele>113.278</ele>
        <time>2022-03-20T14:23:03Z</time>
      </trkpt>
      <trkpt lat="46.47594" lon="0.55204">
        <ele>113.329</ele>
        <time>2022-03-20T14:23:10Z</time>
      </trkpt>
      <trkpt lat="46.47592" lon="0.55195">
        <ele>113.381</ele>
        <time>2022-03-20T14:23:17Z</time>
      </trkpt>
      <trkpt lat="46.47591" lon="0.55185">
        <ele>113.441</ele>
        <time>2022-03-20T14:23:25Z</time>
      </trkpt>
      <trkpt lat="46.4759" lon="0.55175">
        <ele>113.502</ele>
        <time>2022-03-20T14:23:33Z</time>
      </trkpt>
      <trkpt lat="46.47588" lon="0.55164">
        <ele>113.562</ele>
        <time>2022-03-20T14:23:40Z</time>
      </trkpt>
      <trkpt lat="46.47586" lon="0.55154">
        <ele>113.627</ele>
        <time>2022-03-20T14:23:47Z</time>
      </trkpt>
      <trkpt lat="46.47585" lon="0.55145">
        <ele>113.696</ele>
        <time>2022-03-20T14:23:54Z</time>
      </trkpt>
      <trkpt lat="46.47583" lon="0.55134">
        <ele>113.771</ele>
        <time>2022-03-20T14:24:01Z</time>
      </trkpt>
      <trkpt lat="46.47582" lon="0.55124">
        <ele>113.841</ele>
        <time>2022-03-20T14:24:07Z</time>
      </trkpt>
      <trkpt lat="46.47581" lon="0.55114">
        <ele>113.943</ele>
        <time>2022-03-20T14:24:15Z</time>
      </trkpt>
      <trkpt lat="46.47579" lon="0.55105">
        <ele>114.03</ele>
        <time>2022-03-20T14:24:22Z</time>
      </trkpt>
      <trkpt lat="46.47578" lon="0.55095">
        <ele>114.115</ele>
        <time>2022-03-20T14:24:29Z</time>
      </trkpt>
      <trkpt lat="46.47576" lon="0.55085">
        <ele>114.198</ele>
        <time>2022-03-20T14:24:36Z</time>
      </trkpt>
      <trkpt lat="46.47575" lon="0.55076">
        <ele>114.269</ele>
        <time>2022-03-20T14:24:42Z</time>
      </trkpt>
      <trkpt lat="46.47573" lon="0.55067">
        <ele>114.338</ele>
        <time>2022-03-20T14:24:48Z</time>
      </trkpt>
      <trkpt lat="46.47571" lon="0.55057">
        <ele>114.42</ele>
        <time>2022-03-20T14:24:55Z</time>
      </trkpt>
      <trkpt lat="46.47569" lon="0.55048">
        <ele>114.491</ele>
        <time>2022-03-20T14:25:01Z</time>
      </trkpt>
      <trkpt lat="46.47567" lon="0.55039">
        <ele>114.573</ele>
        <time>2022-03-20T14:25:08Z</time>
      </trkpt>
      <trkpt lat="46.47565" lon="0.55029">
        <ele>114.651</ele>
        <time>2022-03-20T14:25:15Z</time>
      </trkpt>
      <trkpt lat="46.47563" lon="0.5502">
        <ele>114.724</ele>
        <time>2022-03-20T14:25:22Z</time>
      </trkpt>
      <trkpt lat="46.4756" lon="0.5501">
        <ele>114.792</ele>
        <time>2022-03-20T14:25:29Z</time>
      </trkpt>
      <trkpt lat="46.47558" lon="0.55">
        <ele>114.854</ele>
        <time>2022-03-20T14:25:36Z</time>
      </trkpt>
      <trkpt lat="46.47555" lon="0.5499">
        <ele>114.919</ele>
        <time>2022-03-20T14:25:43Z</time>
      </trkpt>
      <trkpt lat="46.47552" lon="0.5498">
        <ele>114.998</ele>
        <time>2022-03-20T14:25:51Z</time>
      </trkpt>
      <trkpt lat="46.47549" lon="0.54971">
        <ele>115.072</ele>
        <time>2022-03-20T14:25:58Z</time>
      </trkpt>
      <trkpt lat="46.47546" lon="0.54962">
        <ele>115.151</ele>
        <time>2022-03-20T14:26:05Z</time>
      </trkpt>
      <trkpt lat="46.47541" lon="0.54954">
        <ele>115.255</ele>
        <time>2022-03-20T14:26:13Z</time>
      </trkpt>
      <trkpt lat="46.47538" lon="0.54944">
        <ele>115.371</ele>
        <time>2022-03-20T14:26:22Z</time>
      </trkpt>
      <trkpt lat="46.47535" lon="0.54935">
        <ele>115.469</ele>
        <time>2022-03-20T14:26:30Z</time>
      </trkpt>
      <trkpt lat="46.47532" lon="0.54925">
        <ele>115.553</ele>
        <time>2022-03-20T14:26:37Z</time>
      </trkpt>
      <trkpt lat="46.47528" lon="0.54916">
        <ele>115.621</ele>
        <time>2022-03-20T14:26:43Z</time>
      </trkpt>
      <trkpt lat="46.47525" lon="0.54908">
        <ele>115.701</ele>
        <time>2022-03-20T14:26:51Z</time>
      </trkpt>
      <trkpt lat="46.47521" lon="0.54899">
        <ele>115.754</ele>
        <time>2022-03-20T14:26:57Z</time>
      </trkpt>
      <trkpt lat="46.47516" lon="0.54893">
        <ele>115.803</ele>
        <time>2022-03-20T14:27:03Z</time>
      </trkpt>
      <trkpt lat="46.47511" lon="0.54885">
        <ele>115.855</ele>
        <time>2022-03-20T14:27:09Z</time>
      </trkpt>
      <trkpt lat="46.47508" lon="0.54876">
        <ele>115.894</ele>
        <time>2022-03-20T14:27:15Z</time>
      </trkpt>
      <trkpt lat="46.47504" lon="0.54867">
        <ele>115.936</ele>
        <time>2022-03-20T14:27:22Z</time>
      </trkpt>
      <trkpt lat="46.47499" lon="0.54862">
        <ele>115.969</ele>
        <time>2022-03-20T14:27:28Z</time>
      </trkpt>
      <trkpt lat="46.47493" lon="0.54856">
        <ele>116.003</ele>
        <time>2022-03-20T14:27:35Z</time>
      </trkpt>
      <trkpt lat="46.47487" lon="0.54849">
        <ele>116.032</ele>
        <time>2022-03-20T14:27:41Z</time>
      </trkpt>
      <trkpt lat="46.47483" lon="0.54841">
        <ele>116.063</ele>
        <time>2022-03-20T14:27:47Z</time>
      </trkpt>
      <trkpt lat="46.47478" lon="0.54833">
        <ele>116.101</ele>
        <time>2022-03-20T14:27:54Z</time>
      </trkpt>
      <trkpt lat="46.47476" lon="0.54825">
        <ele>116.154</ele>
        <time>2022-03-20T14:28:08Z</time>
      </trkpt>
      <trkpt lat="46.47472" lon="0.54816">
        <ele>117.547</ele>
        <time>2022-03-20T14:32:11Z</time>
      </trkpt>
      <trkpt lat="46.47473" lon="0.54806">
        <ele>118.089</ele>
        <time>2022-03-20T14:33:37Z</time>
      </trkpt>
      <trkpt lat="46.47472" lon="0.54796">
        <ele>118.248</ele>
        <time>2022-03-20T14:33:47Z</time>
      </trkpt>
      <trkpt lat="46.4747" lon="0.54786">
        <ele>118.357</ele>
        <time>2022-03-20T14:33:55Z</time>
      </trkpt>
      <trkpt lat="46.47468" lon="0.54776">
        <ele>118.457</ele>
        <time>2022-03-20T14:34:03Z</time>
      </trkpt>
      <trkpt lat="46.47466" lon="0.54768">
        <ele>118.551</ele>
        <time>2022-03-20T14:34:12Z</time>
      </trkpt>
      <trkpt lat="46.47465" lon="0.54757">
        <ele>118.611</ele>
        <time>2022-03-20T14:34:19Z</time>
      </trkpt>
      <trkpt lat="46.47465" lon="0.54747">
        <ele>118.683</ele>
        <time>2022-03-20T14:34:28Z</time>
      </trkpt>
      <trkpt lat="46.47464" lon="0.54737">
        <ele>118.762</ele>
        <time>2022-03-20T14:34:38Z</time>
      </trkpt>
      <trkpt lat="46.47463" lon="0.54727">
        <ele>118.831</ele>
        <time>2022-03-20T14:34:48Z</time>
      </trkpt>
      <trkpt lat="46.47463" lon="0.54717">
        <ele>118.863</ele>
        <time>2022-03-20T14:34:54Z</time>
      </trkpt>
      <trkpt lat="46.4746" lon="0.54708">
        <ele>118.895</ele>
        <time>2022-03-20T14:35:01Z</time>
      </trkpt>
      <trkpt lat="46.47459" lon="0.54698">
        <ele>118.925</ele>
        <time>2022-03-20T14:35:08Z</time>
      </trkpt>
      <trkpt lat="46.47458" lon="0.54689">
        <ele>118.958</ele>
        <time>2022-03-20T14:35:16Z</time>
      </trkpt>
      <trkpt lat="46.47456" lon="0.5468">
        <ele>119.002</ele>
        <time>2022-03-20T14:35:25Z</time>
      </trkpt>
      <trkpt lat="46.47455" lon="0.5467">
        <ele>119.062</ele>
        <time>2022-03-20T14:35:33Z</time>
      </trkpt>
      <trkpt lat="46.47454" lon="0.54661">
        <ele>119.135</ele>
        <time>2022-03-20T14:35:42Z</time>
      </trkpt>
      <trkpt lat="46.47451" lon="0.54651">
        <ele>119.201</ele>
        <time>2022-03-20T14:35:50Z</time>
      </trkpt>
      <trkpt lat="46.47449" lon="0.54643">
        <ele>119.255</ele>
        <time>2022-03-20T14:35:57Z</time>
      </trkpt>
      <trkpt lat="46.47445" lon="0.54634">
        <ele>119.313</ele>
        <time>2022-03-20T14:36:05Z</time>
      </trkpt>
      <trkpt lat="46.47439" lon="0.54628">
        <ele>119.363</ele>
        <time>2022-03-20T14:36:13Z</time>
      </trkpt>
      <trkpt lat="46.47434" lon="0.54621">
        <ele>119.397</ele>
        <time>2022-03-20T14:36:19Z</time>
      </trkpt>
      <trkpt lat="46.47429" lon="0.54614">
        <ele>119.449</ele>
        <time>2022-03-20T14:36:29Z</time>
      </trkpt>
      <trkpt lat="46.47423" lon="0.5461">
        <ele>119.482</ele>
        <time>2022-03-20T14:36:35Z</time>
      </trkpt>
      <trkpt lat="46.47418" lon="0.54604">
        <ele>119.524</ele>
        <time>2022-03-20T14:36:41Z</time>
      </trkpt>
      <trkpt lat="46.47413" lon="0.54597">
        <ele>119.592</ele>
        <time>2022-03-20T14:36:49Z</time>
      </trkpt>
      <trkpt lat="46.47407" lon="0.54591">
        <ele>119.666</ele>
        <time>2022-03-20T14:36:57Z</time>
      </trkpt>
      <trkpt lat="46.47401" lon="0.54586">
        <ele>119.801</ele>
        <time>2022-03-20T14:37:16Z</time>
      </trkpt>
      <trkpt lat="46.47395" lon="0.54584">
        <ele>119.858</ele>
        <time>2022-03-20T14:37:22Z</time>
      </trkpt>
      <trkpt lat="46.47389" lon="0.54577">
        <ele>119.922</ele>
        <time>2022-03-20T14:37:29Z</time>
      </trkpt>
      <trkpt lat="46.47383" lon="0.54572">
        <ele>120</ele>
        <time>2022-03-20T14:37:38Z</time>
      </trkpt>
      <trkpt lat="46.47377" lon="0.54568">
        <ele>120.049</ele>
        <time>2022-03-20T14:37:44Z</time>
      </trkpt>
      <trkpt lat="46.47372" lon="0.54563">
        <ele>120.104</ele>
        <time>2022-03-20T14:37:51Z</time>
      </trkpt>
      <trkpt lat="46.47365" lon="0.54559">
        <ele>120.167</ele>
        <time>2022-03-20T14:37:59Z</time>
      </trkpt>
      <trkpt lat="46.47359" lon="0.54556">
        <ele>120.224</ele>
        <time>2022-03-20T14:38:07Z</time>
      </trkpt>
      <trkpt lat="46.47351" lon="0.54554">
        <ele>120.27</ele>
        <time>2022-03-20T14:38:14Z</time>
      </trkpt>
      <trkpt lat="46.47344" lon="0.54553">
        <ele>120.313</ele>
        <time>2022-03-20T14:38:21Z</time>
      </trkpt>
      <trkpt lat="46.47338" lon="0.5455">
        <ele>120.358</ele>
        <time>2022-03-20T14:38:29Z</time>
      </trkpt>
      <trkpt lat="46.47331" lon="0.54545">
        <ele>120.393</ele>
        <time>2022-03-20T14:38:35Z</time>
      </trkpt>
      <trkpt lat="46.47325" lon="0.54541">
        <ele>120.428</ele>
        <time>2022-03-20T14:38:40Z</time>
      </trkpt>
      <trkpt lat="46.47319" lon="0.54537">
        <ele>120.496</ele>
        <time>2022-03-20T14:38:49Z</time>
      </trkpt>
      <trkpt lat="46.47312" lon="0.54534">
        <ele>120.553</ele>
        <time>2022-03-20T14:38:56Z</time>
      </trkpt>
      <trkpt lat="46.47305" lon="0.5453">
        <ele>120.605</ele>
        <time>2022-03-20T14:39:02Z</time>
      </trkpt>
      <trkpt lat="46.47299" lon="0.54527">
        <ele>120.661</ele>
        <time>2022-03-20T14:39:08Z</time>
      </trkpt>
      <trkpt lat="46.47292" lon="0.54525">
        <ele>120.745</ele>
        <time>2022-03-20T14:39:16Z</time>
      </trkpt>
      <trkpt lat="46.47287" lon="0.54518">
        <ele>120.874</ele>
        <time>2022-03-20T14:39:28Z</time>
      </trkpt>
      <trkpt lat="46.4728" lon="0.54515">
        <ele>121.053</ele>
        <time>2022-03-20T14:39:43Z</time>
      </trkpt>
      <trkpt lat="46.47276" lon="0.54522">
        <ele>121.4</ele>
        <time>2022-03-20T14:40:23Z</time>
      </trkpt>
      <trkpt lat="46.47283" lon="0.54519">
        <ele>122.818</ele>
        <time>2022-03-20T14:42:58Z</time>
      </trkpt>
      <trkpt lat="46.47279" lon="0.5451">
        <ele>123.433</ele>
        <time>2022-03-20T14:43:50Z</time>
      </trkpt>
      <trkpt lat="46.47273" lon="0.54503">
        <ele>123.804</ele>
        <time>2022-03-20T14:43:56Z</time>
      </trkpt>
      <trkpt lat="46.47267" lon="0.54498">
        <ele>124.194</ele>
        <time>2022-03-20T14:44:03Z</time>
      </trkpt>
      <trkpt lat="46.47261" lon="0.54492">
        <ele>124.639</ele>
        <time>2022-03-20T14:44:12Z</time>
      </trkpt>
      <trkpt lat="46.47255" lon="0.54487">
        <ele>125.017</ele>
        <time>2022-03-20T14:44:21Z</time>
      </trkpt>
      <trkpt lat="46.4725" lon="0.54481">
        <ele>125.301</ele>
        <time>2022-03-20T14:44:29Z</time>
      </trkpt>
      <trkpt lat="46.47244" lon="0.54474">
        <ele>125.518</ele>
        <time>2022-03-20T14:44:36Z</time>
      </trkpt>
      <trkpt lat="46.47239" lon="0.54467">
        <ele>125.755</ele>
        <time>2022-03-20T14:44:45Z</time>
      </trkpt>
      <trkpt lat="46.47234" lon="0.54461">
        <ele>125.91</ele>
        <time>2022-03-20T14:44:52Z</time>
      </trkpt>
      <trkpt lat="46.47229" lon="0.54454">
        <ele>126.077</ele>
        <time>2022-03-20T14:45:01Z</time>
      </trkpt>
      <trkpt lat="46.47224" lon="0.54446">
        <ele>126.213</ele>
        <time>2022-03-20T14:45:10Z</time>
      </trkpt>
      <trkpt lat="46.47219" lon="0.54439">
        <ele>126.326</ele>
        <time>2022-03-20T14:45:19Z</time>
      </trkpt>
      <trkpt lat="46.47214" lon="0.54432">
        <ele>126.424</ele>
        <time>2022-03-20T14:45:28Z</time>
      </trkpt>
      <trkpt lat="46.4721" lon="0.54424">
        <ele>126.501</ele>
        <time>2022-03-20T14:45:36Z</time>
      </trkpt>
      <trkpt lat="46.47206" lon="0.54416">
        <ele>126.571</ele>
        <time>2022-03-20T14:45:44Z</time>
      </trkpt>
      <trkpt lat="46.47203" lon="0.54406">
        <ele>126.633</ele>
        <time>2022-03-20T14:45:52Z</time>
      </trkpt>
      <trkpt lat="46.47199" lon="0.54398">
        <ele>126.676</ele>
        <time>2022-03-20T14:45:58Z</time>
      </trkpt>
      <trkpt lat="46.47196" lon="0.54388">
        <ele>126.721</ele>
        <time>2022-03-20T14:46:05Z</time>
      </trkpt>
      <trkpt lat="46.47193" lon="0.54379">
        <ele>126.756</ele>
        <time>2022-03-20T14:46:11Z</time>
      </trkpt>
      <trkpt lat="46.4719" lon="0.54369">
        <ele>126.795</ele>
        <time>2022-03-20T14:46:18Z</time>
      </trkpt>
      <trkpt lat="46.47187" lon="0.54359">
        <ele>126.83</ele>
        <time>2022-03-20T14:46:24Z</time>
      </trkpt>
      <trkpt lat="46.47184" lon="0.54351">
        <ele>126.87</ele>
        <time>2022-03-20T14:46:30Z</time>
      </trkpt>
      <trkpt lat="46.47182" lon="0.5434">
        <ele>126.926</ele>
        <time>2022-03-20T14:46:38Z</time>
      </trkpt>
      <trkpt lat="46.47179" lon="0.54331">
        <ele>126.998</ele>
        <time>2022-03-20T14:46:47Z</time>
      </trkpt>
      <trkpt lat="46.47176" lon="0.54322">
        <ele>127.069</ele>
        <time>2022-03-20T14:46:56Z</time>
      </trkpt>
      <trkpt lat="46.47174" lon="0.54312">
        <ele>127.129</ele>
        <time>2022-03-20T14:47:05Z</time>
      </trkpt>
      <trkpt lat="46.47172" lon="0.54304">
        <ele>127.179</ele>
        <time>2022-03-20T14:47:13Z</time>
      </trkpt>
      <trkpt lat="46.47169" lon="0.54295">
        <ele>127.219</ele>
        <time>2022-03-20T14:47:20Z</time>
      </trkpt>
      <trkpt lat="46.47167" lon="0.54286">
        <ele>127.256</ele>
        <time>2022-03-20T14:47:27Z</time>
      </trkpt>
      <trkpt lat="46.47165" lon="0.54277">
        <ele>127.296</ele>
        <time>2022-03-20T14:47:34Z</time>
      </trkpt>
      <trkpt lat="46.47162" lon="0.54267">
        <ele>127.342</ele>
        <time>2022-03-20T14:47:42Z</time>
      </trkpt>
      <trkpt lat="46.47159" lon="0.54258">
        <ele>127.387</ele>
        <time>2022-03-20T14:47:50Z</time>
      </trkpt>
      <trkpt lat="46.47156" lon="0.54249">
        <ele>127.432</ele>
        <time>2022-03-20T14:47:58Z</time>
      </trkpt>
      <trkpt lat="46.47154" lon="0.5424">
        <ele>127.466</ele>
        <time>2022-03-20T14:48:04Z</time>
      </trkpt>
      <trkpt lat="46.47154" lon="0.54229">
        <ele>127.516</ele>
        <time>2022-03-20T14:48:12Z</time>
      </trkpt>
      <trkpt lat="46.4716" lon="0.54225">
        <ele>127.561</ele>
        <time>2022-03-20T14:48:20Z</time>
      </trkpt>
      <trkpt lat="46.47166" lon="0.54221">
        <ele>127.6</ele>
        <time>2022-03-20T14:48:27Z</time>
      </trkpt>
      <trkpt lat="46.47173" lon="0.54217">
        <ele>127.64</ele>
        <time>2022-03-20T14:48:34Z</time>
      </trkpt>
      <trkpt lat="46.47179" lon="0.54211">
        <ele>127.689</ele>
        <time>2022-03-20T14:48:43Z</time>
      </trkpt>
      <trkpt lat="46.47186" lon="0.54207">
        <ele>127.731</ele>
        <time>2022-03-20T14:48:50Z</time>
      </trkpt>
      <trkpt lat="46.47193" lon="0.54206">
        <ele>127.773</ele>
        <time>2022-03-20T14:48:57Z</time>
      </trkpt>
      <trkpt lat="46.472" lon="0.54205">
        <ele>127.817</ele>
        <time>2022-03-20T14:49:04Z</time>
      </trkpt>
      <trkpt lat="46.47206" lon="0.54203">
        <ele>127.856</ele>
        <time>2022-03-20T14:49:10Z</time>
      </trkpt>
      <trkpt lat="46.47213" lon="0.542">
        <ele>127.899</ele>
        <time>2022-03-20T14:49:17Z</time>
      </trkpt>
      <trkpt lat="46.4722" lon="0.54197">
        <ele>127.933</ele>
        <time>2022-03-20T14:49:23Z</time>
      </trkpt>
      <trkpt lat="46.47226" lon="0.54192">
        <ele>127.973</ele>
        <time>2022-03-20T14:49:30Z</time>
      </trkpt>
      <trkpt lat="46.47233" lon="0.54188">
        <ele>128.005</ele>
        <time>2022-03-20T14:49:36Z</time>
      </trkpt>
      <trkpt lat="46.47239" lon="0.54184">
        <ele>128.04</ele>
        <time>2022-03-20T14:49:43Z</time>
      </trkpt>
      <trkpt lat="46.47247" lon="0.54182">
        <ele>128.067</ele>
        <time>2022-03-20T14:49:49Z</time>
      </trkpt>
      <trkpt lat="46.47254" lon="0.5418">
        <ele>128.091</ele>
        <time>2022-03-20T14:49:55Z</time>
      </trkpt>
      <trkpt lat="46.47261" lon="0.54178">
        <ele>128.118</ele>
        <time>2022-03-20T14:50:02Z</time>
      </trkpt>
      <trkpt lat="46.47268" lon="0.54175">
        <ele>128.142</ele>
        <time>2022-03-20T14:50:09Z</time>
      </trkpt>
      <trkpt lat="46.47274" lon="0.5417">
        <ele>128.166</ele>
        <time>2022-03-20T14:50:16Z</time>
      </trkpt>
      <trkpt lat="46.4728" lon="0.54167">
        <ele>128.191</ele>
        <time>2022-03-20T14:50:23Z</time>
      </trkpt>
      <trkpt lat="46.47287" lon="0.54164">
        <ele>128.21</ele>
        <time>2022-03-20T14:50:29Z</time>
      </trkpt>
      <trkpt lat="46.47294" lon="0.5416">
        <ele>128.23</ele>
        <time>2022-03-20T14:50:35Z</time>
      </trkpt>
      <trkpt lat="46.47301" lon="0.54158">
        <ele>128.254</ele>
        <time>2022-03-20T14:50:41Z</time>
      </trkpt>
      <trkpt lat="46.47307" lon="0.54155">
        <ele>128.28</ele>
        <time>2022-03-20T14:50:47Z</time>
      </trkpt>
      <trkpt lat="46.47313" lon="0.54151">
        <ele>128.308</ele>
        <time>2022-03-20T14:50:54Z</time>
      </trkpt>
      <trkpt lat="46.4732" lon="0.54148">
        <ele>128.334</ele>
        <time>2022-03-20T14:51:01Z</time>
      </trkpt>
      <trkpt lat="46.47326" lon="0.54144">
        <ele>128.356</ele>
        <time>2022-03-20T14:51:07Z</time>
      </trkpt>
      <trkpt lat="46.47332" lon="0.54138">
        <ele>128.383</ele>
        <time>2022-03-20T14:51:14Z</time>
      </trkpt>
      <trkpt lat="46.47338" lon="0.54134">
        <ele>128.414</ele>
        <time>2022-03-20T14:51:21Z</time>
      </trkpt>
      <trkpt lat="46.47344" lon="0.5413">
        <ele>128.439</ele>
        <time>2022-03-20T14:51:27Z</time>
      </trkpt>
      <trkpt lat="46.47351" lon="0.54127">
        <ele>128.466</ele>
        <time>2022-03-20T14:51:34Z</time>
      </trkpt>
      <trkpt lat="46.47358" lon="0.54123">
        <ele>128.49</ele>
        <time>2022-03-20T14:51:41Z</time>
      </trkpt>
      <trkpt lat="46.47364" lon="0.5412">
        <ele>128.511</ele>
        <time>2022-03-20T14:51:47Z</time>
      </trkpt>
      <trkpt lat="46.47371" lon="0.54116">
        <ele>128.535</ele>
        <time>2022-03-20T14:51:55Z</time>
      </trkpt>
      <trkpt lat="46.47378" lon="0.54112">
        <ele>128.552</ele>
        <time>2022-03-20T14:52:02Z</time>
      </trkpt>
      <trkpt lat="46.47385" lon="0.54108">
        <ele>128.559</ele>
        <time>2022-03-20T14:52:09Z</time>
      </trkpt>
      <trkpt lat="46.4739" lon="0.541">
        <ele>128.564</ele>
        <time>2022-03-20T14:52:15Z</time>
      </trkpt>
      <trkpt lat="46.47397" lon="0.54097">
        <ele>128.571</ele>
        <time>2022-03-20T14:52:21Z</time>
      </trkpt>
      <trkpt lat="46.47403" lon="0.54093">
        <ele>128.576</ele>
        <time>2022-03-20T14:52:27Z</time>
      </trkpt>
      <trkpt lat="46.47409" lon="0.54088">
        <ele>128.587</ele>
        <time>2022-03-20T14:52:34Z</time>
      </trkpt>
      <trkpt lat="46.47416" lon="0.54084">
        <ele>128.604</ele>
        <time>2022-03-20T14:52:41Z</time>
      </trkpt>
      <trkpt lat="46.47422" lon="0.5408">
        <ele>128.623</ele>
        <time>2022-03-20T14:52:48Z</time>
      </trkpt>
      <trkpt lat="46.47429" lon="0.54078">
        <ele>128.638</ele>
        <time>2022-03-20T14:52:53Z</time>
      </trkpt>
      <trkpt lat="46.47435" lon="0.54073">
        <ele>128.656</ele>
        <time>2022-03-20T14:52:59Z</time>
      </trkpt>
      <trkpt lat="46.47442" lon="0.5407">
        <ele>128.676</ele>
        <time>2022-03-20T14:53:05Z</time>
      </trkpt>
      <trkpt lat="46.4745" lon="0.54067">
        <ele>128.695</ele>
        <time>2022-03-20T14:53:11Z</time>
      </trkpt>
      <trkpt lat="46.47456" lon="0.54064">
        <ele>128.716</ele>
        <time>2022-03-20T14:53:17Z</time>
      </trkpt>
      <trkpt lat="46.47463" lon="0.54059">
        <ele>128.739</ele>
        <time>2022-03-20T14:53:24Z</time>
      </trkpt>
      <trkpt lat="46.47469" lon="0.54056">
        <ele>128.756</ele>
        <time>2022-03-20T14:53:31Z</time>
      </trkpt>
      <trkpt lat="46.47476" lon="0.54052">
        <ele>128.768</ele>
        <time>2022-03-20T14:53:38Z</time>
      </trkpt>
      <trkpt lat="46.47482" lon="0.54048">
        <ele>128.778</ele>
        <time>2022-03-20T14:53:45Z</time>
      </trkpt>
      <trkpt lat="46.47488" lon="0.54043">
        <ele>128.798</ele>
        <time>2022-03-20T14:54:40Z</time>
      </trkpt>
      <trkpt lat="46.47489" lon="0.54032">
        <ele>128.811</ele>
        <time>2022-03-20T14:54:48Z</time>
      </trkpt>
      <trkpt lat="46.47489" lon="0.54022">
        <ele>128.824</ele>
        <time>2022-03-20T14:54:55Z</time>
      </trkpt>
      <trkpt lat="46.47487" lon="0.54013">
        <ele>128.834</ele>
        <time>2022-03-20T14:55:02Z</time>
      </trkpt>
      <trkpt lat="46.47486" lon="0.54002">
        <ele>128.844</ele>
        <time>2022-03-20T14:55:09Z</time>
      </trkpt>
      <trkpt lat="46.47484" lon="0.53992">
        <ele>128.854</ele>
        <time>2022-03-20T14:55:16Z</time>
      </trkpt>
      <trkpt lat="46.47482" lon="0.53982">
        <ele>128.861</ele>
        <time>2022-03-20T14:55:26Z</time>
      </trkpt>
      <trkpt lat="46.4748" lon="0.53972">
        <ele>128.861</ele>
        <time>2022-03-20T14:55:33Z</time>
      </trkpt>
      <trkpt lat="46.47478" lon="0.53961">
        <ele>128.855</ele>
        <time>2022-03-20T14:55:39Z</time>
      </trkpt>
      <trkpt lat="46.47477" lon="0.53951">
        <ele>128.851</ele>
        <time>2022-03-20T14:55:45Z</time>
      </trkpt>
      <trkpt lat="46.47476" lon="0.53941">
        <ele>128.847</ele>
        <time>2022-03-20T14:55:51Z</time>
      </trkpt>
      <trkpt lat="46.47473" lon="0.53932">
        <ele>128.836</ele>
        <time>2022-03-20T14:55:59Z</time>
      </trkpt>
      <trkpt lat="46.47472" lon="0.53921">
        <ele>128.825</ele>
        <time>2022-03-20T14:56:06Z</time>
      </trkpt>
      <trkpt lat="46.47471" lon="0.53912">
        <ele>128.806</ele>
        <time>2022-03-20T14:56:14Z</time>
      </trkpt>
      <trkpt lat="46.47469" lon="0.53902">
        <ele>128.781</ele>
        <time>2022-03-20T14:56:21Z</time>
      </trkpt>
      <trkpt lat="46.47467" lon="0.53892">
        <ele>128.756</ele>
        <time>2022-03-20T14:56:27Z</time>
      </trkpt>
      <trkpt lat="46.47465" lon="0.53881">
        <ele>128.729</ele>
        <time>2022-03-20T14:56:33Z</time>
      </trkpt>
      <trkpt lat="46.47464" lon="0.53871">
        <ele>128.692</ele>
        <time>2022-03-20T14:56:40Z</time>
      </trkpt>
      <trkpt lat="46.47462" lon="0.53861">
        <ele>128.649</ele>
        <time>2022-03-20T14:56:48Z</time>
      </trkpt>
      <trkpt lat="46.47461" lon="0.53852">
        <ele>128.617</ele>
        <time>2022-03-20T14:56:54Z</time>
      </trkpt>
      <trkpt lat="46.47459" lon="0.53842">
        <ele>128.577</ele>
        <time>2022-03-20T14:57:01Z</time>
      </trkpt>
      <trkpt lat="46.47457" lon="0.53832">
        <ele>128.543</ele>
        <time>2022-03-20T14:57:07Z</time>
      </trkpt>
      <trkpt lat="46.47456" lon="0.53822">
        <ele>128.509</ele>
        <time>2022-03-20T14:57:13Z</time>
      </trkpt>
      <trkpt lat="46.47455" lon="0.53812">
        <ele>128.47</ele>
        <time>2022-03-20T14:57:20Z</time>
      </trkpt>
      <trkpt lat="46.47454" lon="0.53802">
        <ele>128.435</ele>
        <time>2022-03-20T14:57:26Z</time>
      </trkpt>
      <trkpt lat="46.47452" lon="0.53791">
        <ele>128.379</ele>
        <time>2022-03-20T14:57:35Z</time>
      </trkpt>
      <trkpt lat="46.4745" lon="0.53782">
        <ele>128.345</ele>
        <time>2022-03-20T14:57:41Z</time>
      </trkpt>
      <trkpt lat="46.4745" lon="0.53772">
        <ele>128.32</ele>
        <time>2022-03-20T14:57:46Z</time>
      </trkpt>
      <trkpt lat="46.47448" lon="0.53762">
        <ele>128.284</ele>
        <time>2022-03-20T14:57:53Z</time>
      </trkpt>
      <trkpt lat="46.47447" lon="0.53753">
        <ele>128.256</ele>
        <time>2022-03-20T14:57:59Z</time>
      </trkpt>
      <trkpt lat="46.47445" lon="0.53743">
        <ele>128.22</ele>
        <time>2022-03-20T14:58:08Z</time>
      </trkpt>
      <trkpt lat="46.47444" lon="0.53733">
        <ele>128.197</ele>
        <time>2022-03-20T14:58:14Z</time>
      </trkpt>
      <trkpt lat="46.47442" lon="0.53722">
        <ele>128.172</ele>
        <time>2022-03-20T14:58:20Z</time>
      </trkpt>
      <trkpt lat="46.47441" lon="0.53713">
        <ele>128.146</ele>
        <time>2022-03-20T14:58:27Z</time>
      </trkpt>
      <trkpt lat="46.4744" lon="0.53702">
        <ele>128.12</ele>
        <time>2022-03-20T14:58:34Z</time>
      </trkpt>
      <trkpt lat="46.47438" lon="0.53693">
        <ele>128.097</ele>
        <time>2022-03-20T14:58:41Z</time>
      </trkpt>
      <trkpt lat="46.47436" lon="0.53683">
        <ele>128.077</ele>
        <time>2022-03-20T14:58:47Z</time>
      </trkpt>
      <trkpt lat="46.47434" lon="0.53673">
        <ele>128.054</ele>
        <time>2022-03-20T14:58:55Z</time>
      </trkpt>
      <trkpt lat="46.47432" lon="0.53663">
        <ele>128.036</ele>
        <time>2022-03-20T14:59:01Z</time>
      </trkpt>
      <trkpt lat="46.47431" lon="0.53652">
        <ele>128.015</ele>
        <time>2022-03-20T14:59:09Z</time>
      </trkpt>
      <trkpt lat="46.47429" lon="0.53642">
        <ele>127.995</ele>
        <time>2022-03-20T14:59:16Z</time>
      </trkpt>
      <trkpt lat="46.47428" lon="0.53633">
        <ele>127.969</ele>
        <time>2022-03-20T14:59:23Z</time>
      </trkpt>
      <trkpt lat="46.47429" lon="0.53622">
        <ele>127.934</ele>
        <time>2022-03-20T14:59:33Z</time>
      </trkpt>
      <trkpt lat="46.4743" lon="0.53613">
        <ele>127.909</ele>
        <time>2022-03-20T14:59:40Z</time>
      </trkpt>
      <trkpt lat="46.47432" lon="0.53602">
        <ele>127.88</ele>
        <time>2022-03-20T14:59:49Z</time>
      </trkpt>
      <trkpt lat="46.47433" lon="0.53591">
        <ele>127.858</ele>
        <time>2022-03-20T14:59:55Z</time>
      </trkpt>
      <trkpt lat="46.47435" lon="0.53579">
        <ele>127.837</ele>
        <time>2022-03-20T15:00:01Z</time>
      </trkpt>
      <trkpt lat="46.47435" lon="0.5357">
        <ele>127.812</ele>
        <time>2022-03-20T15:00:08Z</time>
      </trkpt>
      <trkpt lat="46.47435" lon="0.53559">
        <ele>127.795</ele>
        <time>2022-03-20T15:00:14Z</time>
      </trkpt>
      <trkpt lat="46.47437" lon="0.5355">
        <ele>127.783</ele>
        <time>2022-03-20T15:00:20Z</time>
      </trkpt>
      <trkpt lat="46.47438" lon="0.5354">
        <ele>127.769</ele>
        <time>2022-03-20T15:00:27Z</time>
      </trkpt>
      <trkpt lat="46.47441" lon="0.5353">
        <ele>127.75</ele>
        <time>2022-03-20T15:00:35Z</time>
      </trkpt>
      <trkpt lat="46.47442" lon="0.5352">
        <ele>127.732</ele>
        <time>2022-03-20T15:00:42Z</time>
      </trkpt>
      <trkpt lat="46.47446" lon="0.5351">
        <ele>127.716</ele>
        <time>2022-03-20T15:00:49Z</time>
      </trkpt>
      <trkpt lat="46.47448" lon="0.53501">
        <ele>127.699</ele>
        <time>2022-03-20T15:00:57Z</time>
      </trkpt>
      <trkpt lat="46.47451" lon="0.53492">
        <ele>127.683</ele>
        <time>2022-03-20T15:01:06Z</time>
      </trkpt>
      <trkpt lat="46.47452" lon="0.53482">
        <ele>127.663</ele>
        <time>2022-03-20T15:01:14Z</time>
      </trkpt>
      <trkpt lat="46.47455" lon="0.53474">
        <ele>127.645</ele>
        <time>2022-03-20T15:01:20Z</time>
      </trkpt>
      <trkpt lat="46.47459" lon="0.53465">
        <ele>127.621</ele>
        <time>2022-03-20T15:01:27Z</time>
      </trkpt>
      <trkpt lat="46.47463" lon="0.53456">
        <ele>127.594</ele>
        <time>2022-03-20T15:01:34Z</time>
      </trkpt>
      <trkpt lat="46.47465" lon="0.53446">
        <ele>127.571</ele>
        <time>2022-03-20T15:01:40Z</time>
      </trkpt>
      <trkpt lat="46.47469" lon="0.53437">
        <ele>127.539</ele>
        <time>2022-03-20T15:01:48Z</time>
      </trkpt>
      <trkpt lat="46.47472" lon="0.53429">
        <ele>127.508</ele>
        <time>2022-03-20T15:01:55Z</time>
      </trkpt>
      <trkpt lat="46.47475" lon="0.5342">
        <ele>127.472</ele>
        <time>2022-03-20T15:02:03Z</time>
      </trkpt>
      <trkpt lat="46.47478" lon="0.53411">
        <ele>127.445</ele>
        <time>2022-03-20T15:02:10Z</time>
      </trkpt>
      <trkpt lat="46.47481" lon="0.53402">
        <ele>127.422</ele>
        <time>2022-03-20T15:02:17Z</time>
      </trkpt>
      <trkpt lat="46.47485" lon="0.53393">
        <ele>127.405</ele>
        <time>2022-03-20T15:02:23Z</time>
      </trkpt>
      <trkpt lat="46.47488" lon="0.53385">
        <ele>127.386</ele>
        <time>2022-03-20T15:02:29Z</time>
      </trkpt>
      <trkpt lat="46.47491" lon="0.53375">
        <ele>127.323</ele>
        <time>2022-03-20T15:02:53Z</time>
      </trkpt>
      <trkpt lat="46.47493" lon="0.53366">
        <ele>127.276</ele>
        <time>2022-03-20T15:03:02Z</time>
      </trkpt>
      <trkpt lat="46.47497" lon="0.53358">
        <ele>127.23</ele>
        <time>2022-03-20T15:03:11Z</time>
      </trkpt>
      <trkpt lat="46.475" lon="0.5335">
        <ele>127.198</ele>
        <time>2022-03-20T15:03:19Z</time>
      </trkpt>
      <trkpt lat="46.47503" lon="0.53339">
        <ele>127.175</ele>
        <time>2022-03-20T15:03:26Z</time>
      </trkpt>
      <trkpt lat="46.47505" lon="0.5333">
        <ele>127.157</ele>
        <time>2022-03-20T15:03:32Z</time>
      </trkpt>
      <trkpt lat="46.47506" lon="0.5332">
        <ele>127.139</ele>
        <time>2022-03-20T15:03:38Z</time>
      </trkpt>
      <trkpt lat="46.47509" lon="0.53311">
        <ele>127.121</ele>
        <time>2022-03-20T15:03:44Z</time>
      </trkpt>
      <trkpt lat="46.47511" lon="0.53301">
        <ele>127.096</ele>
        <time>2022-03-20T15:03:52Z</time>
      </trkpt>
      <trkpt lat="46.47512" lon="0.53291">
        <ele>127.082</ele>
        <time>2022-03-20T15:03:59Z</time>
      </trkpt>
      <trkpt lat="46.47512" lon="0.53281">
        <ele>127.077</ele>
        <time>2022-03-20T15:04:05Z</time>
      </trkpt>
      <trkpt lat="46.47515" lon="0.53271">
        <ele>127.076</ele>
        <time>2022-03-20T15:04:11Z</time>
      </trkpt>
      <trkpt lat="46.47517" lon="0.53261">
        <ele>127.081</ele>
        <time>2022-03-20T15:04:19Z</time>
      </trkpt>
      <trkpt lat="46.47518" lon="0.53251">
        <ele>127.09</ele>
        <time>2022-03-20T15:04:28Z</time>
      </trkpt>
      <trkpt lat="46.47519" lon="0.53241">
        <ele>127.091</ele>
        <time>2022-03-20T15:04:35Z</time>
      </trkpt>
      <trkpt lat="46.47523" lon="0.53232">
        <ele>127.087</ele>
        <time>2022-03-20T15:04:45Z</time>
      </trkpt>
      <trkpt lat="46.47526" lon="0.53223">
        <ele>127.083</ele>
        <time>2022-03-20T15:04:52Z</time>
      </trkpt>
      <trkpt lat="46.47528" lon="0.53214">
        <ele>127.081</ele>
        <time>2022-03-20T15:05:02Z</time>
      </trkpt>
      <trkpt lat="46.47529" lon="0.53203">
        <ele>127.083</ele>
        <time>2022-03-20T15:05:09Z</time>
      </trkpt>
      <trkpt lat="46.47528" lon="0.53193">
        <ele>127.086</ele>
        <time>2022-03-20T15:05:15Z</time>
      </trkpt>
      <trkpt lat="46.47531" lon="0.53185">
        <ele>127.093</ele>
        <time>2022-03-20T15:05:21Z</time>
      </trkpt>
      <trkpt lat="46.47531" lon="0.53175">
        <ele>127.103</ele>
        <time>2022-03-20T15:05:28Z</time>
      </trkpt>
      <trkpt lat="46.47535" lon="0.53165">
        <ele>127.125</ele>
        <time>2022-03-20T15:05:36Z</time>
      </trkpt>
      <trkpt lat="46.47536" lon="0.53155">
        <ele>127.142</ele>
        <time>2022-03-20T15:05:42Z</time>
      </trkpt>
      <trkpt lat="46.47537" lon="0.53145">
        <ele>127.167</ele>
        <time>2022-03-20T15:05:52Z</time>
      </trkpt>
      <trkpt lat="46.47539" lon="0.53135">
        <ele>127.18</ele>
        <time>2022-03-20T15:05:59Z</time>
      </trkpt>
      <trkpt lat="46.4754" lon="0.53125">
        <ele>127.199</ele>
        <time>2022-03-20T15:06:06Z</time>
      </trkpt>
      <trkpt lat="46.47539" lon="0.53115">
        <ele>127.219</ele>
        <time>2022-03-20T15:06:12Z</time>
      </trkpt>
      <trkpt lat="46.47538" lon="0.53104">
        <ele>127.252</ele>
        <time>2022-03-20T15:06:20Z</time>
      </trkpt>
      <trkpt lat="46.4754" lon="0.53094">
        <ele>127.279</ele>
        <time>2022-03-20T15:06:27Z</time>
      </trkpt>
      <trkpt lat="46.47541" lon="0.53084">
        <ele>127.303</ele>
        <time>2022-03-20T15:06:34Z</time>
      </trkpt>
      <trkpt lat="46.47542" lon="0.53074">
        <ele>127.318</ele>
        <time>2022-03-20T15:06:39Z</time>
      </trkpt>
      <trkpt lat="46.47544" lon="0.53064">
        <ele>127.335</ele>
        <time>2022-03-20T15:06:45Z</time>
      </trkpt>
      <trkpt lat="46.47544" lon="0.53054">
        <ele>127.373</ele>
        <time>2022-03-20T15:06:56Z</time>
      </trkpt>
      <trkpt lat="46.47545" lon="0.53043">
        <ele>127.39</ele>
        <time>2022-03-20T15:07:01Z</time>
      </trkpt>
      <trkpt lat="46.47547" lon="0.53034">
        <ele>127.414</ele>
        <time>2022-03-20T15:07:06Z</time>
      </trkpt>
      <trkpt lat="46.47548" lon="0.53024">
        <ele>127.46</ele>
        <time>2022-03-20T15:07:15Z</time>
      </trkpt>
      <trkpt lat="46.47549" lon="0.53015">
        <ele>127.524</ele>
        <time>2022-03-20T15:07:34Z</time>
      </trkpt>
      <trkpt lat="46.4755" lon="0.53005">
        <ele>127.561</ele>
        <time>2022-03-20T15:07:42Z</time>
      </trkpt>
      <trkpt lat="46.47553" lon="0.52996">
        <ele>127.602</ele>
        <time>2022-03-20T15:07:51Z</time>
      </trkpt>
      <trkpt lat="46.47554" lon="0.52986">
        <ele>127.637</ele>
        <time>2022-03-20T15:08:00Z</time>
      </trkpt>
      <trkpt lat="46.47556" lon="0.52977">
        <ele>127.662</ele>
        <time>2022-03-20T15:08:08Z</time>
      </trkpt>
      <trkpt lat="46.47557" lon="0.52966">
        <ele>127.684</ele>
        <time>2022-03-20T15:08:16Z</time>
      </trkpt>
      <trkpt lat="46.47558" lon="0.52956">
        <ele>127.695</ele>
        <time>2022-03-20T15:08:21Z</time>
      </trkpt>
      <trkpt lat="46.47559" lon="0.52946">
        <ele>127.706</ele>
        <time>2022-03-20T15:08:27Z</time>
      </trkpt>
      <trkpt lat="46.47561" lon="0.52935">
        <ele>127.715</ele>
        <time>2022-03-20T15:08:33Z</time>
      </trkpt>
      <trkpt lat="46.47562" lon="0.52925">
        <ele>127.73</ele>
        <time>2022-03-20T15:08:41Z</time>
      </trkpt>
      <trkpt lat="46.47563" lon="0.52916">
        <ele>127.755</ele>
        <time>2022-03-20T15:08:51Z</time>
      </trkpt>
      <trkpt lat="46.47566" lon="0.52907">
        <ele>127.772</ele>
        <time>2022-03-20T15:08:57Z</time>
      </trkpt>
      <trkpt lat="46.47568" lon="0.52898">
        <ele>127.789</ele>
        <time>2022-03-20T15:09:03Z</time>
      </trkpt>
      <trkpt lat="46.4757" lon="0.52889">
        <ele>127.8</ele>
        <time>2022-03-20T15:09:09Z</time>
      </trkpt>
      <trkpt lat="46.47571" lon="0.52878">
        <ele>127.808</ele>
        <time>2022-03-20T15:09:17Z</time>
      </trkpt>
      <trkpt lat="46.47572" lon="0.52867">
        <ele>127.813</ele>
        <time>2022-03-20T15:09:23Z</time>
      </trkpt>
      <trkpt lat="46.47573" lon="0.52857">
        <ele>127.833</ele>
        <time>2022-03-20T15:09:29Z</time>
      </trkpt>
      <trkpt lat="46.47575" lon="0.52848">
        <ele>127.856</ele>
        <time>2022-03-20T15:09:34Z</time>
      </trkpt>
      <trkpt lat="46.47576" lon="0.52837">
        <ele>127.907</ele>
        <time>2022-03-20T15:09:44Z</time>
      </trkpt>
      <trkpt lat="46.47579" lon="0.52827">
        <ele>127.945</ele>
        <time>2022-03-20T15:09:51Z</time>
      </trkpt>
      <trkpt lat="46.4758" lon="0.52817">
        <ele>127.988</ele>
        <time>2022-03-20T15:09:58Z</time>
      </trkpt>
      <trkpt lat="46.47581" lon="0.52807">
        <ele>128.045</ele>
        <time>2022-03-20T15:10:06Z</time>
      </trkpt>
      <trkpt lat="46.47583" lon="0.52796">
        <ele>128.107</ele>
        <time>2022-03-20T15:10:13Z</time>
      </trkpt>
      <trkpt lat="46.47584" lon="0.52786">
        <ele>128.156</ele>
        <time>2022-03-20T15:10:18Z</time>
      </trkpt>
      <trkpt lat="46.47586" lon="0.52776">
        <ele>128.237</ele>
        <time>2022-03-20T15:10:25Z</time>
      </trkpt>
      <trkpt lat="46.47588" lon="0.52767">
        <ele>128.327</ele>
        <time>2022-03-20T15:10:32Z</time>
      </trkpt>
      <trkpt lat="46.4759" lon="0.52757">
        <ele>128.403</ele>
        <time>2022-03-20T15:10:38Z</time>
      </trkpt>
      <trkpt lat="46.47591" lon="0.52748">
        <ele>128.478</ele>
        <time>2022-03-20T15:10:44Z</time>
      </trkpt>
      <trkpt lat="46.47592" lon="0.52738">
        <ele>128.587</ele>
        <time>2022-03-20T15:10:53Z</time>
      </trkpt>
      <trkpt lat="46.47593" lon="0.52728">
        <ele>128.678</ele>
        <time>2022-03-20T15:11:01Z</time>
      </trkpt>
      <trkpt lat="46.47594" lon="0.52717">
        <ele>128.772</ele>
        <time>2022-03-20T15:11:10Z</time>
      </trkpt>
      <trkpt lat="46.47599" lon="0.52707">
        <ele>128.83</ele>
        <time>2022-03-20T15:11:16Z</time>
      </trkpt>
      <trkpt lat="46.47599" lon="0.52697">
        <ele>128.873</ele>
        <time>2022-03-20T15:11:21Z</time>
      </trkpt>
      <trkpt lat="46.47601" lon="0.52686">
        <ele>128.928</ele>
        <time>2022-03-20T15:11:28Z</time>
      </trkpt>
      <trkpt lat="46.47601" lon="0.52676">
        <ele>128.977</ele>
        <time>2022-03-20T15:11:35Z</time>
      </trkpt>
      <trkpt lat="46.47603" lon="0.52666">
        <ele>129.02</ele>
        <time>2022-03-20T15:11:42Z</time>
      </trkpt>
      <trkpt lat="46.47606" lon="0.52656">
        <ele>129.072</ele>
        <time>2022-03-20T15:11:50Z</time>
      </trkpt>
      <trkpt lat="46.47608" lon="0.52646">
        <ele>129.112</ele>
        <time>2022-03-20T15:11:56Z</time>
      </trkpt>
      <trkpt lat="46.47609" lon="0.52636">
        <ele>129.153</ele>
        <time>2022-03-20T15:12:02Z</time>
      </trkpt>
      <trkpt lat="46.4761" lon="0.52626">
        <ele>129.193</ele>
        <time>2022-03-20T15:12:08Z</time>
      </trkpt>
      <trkpt lat="46.47611" lon="0.52616">
        <ele>129.237</ele>
        <time>2022-03-20T15:12:15Z</time>
      </trkpt>
      <trkpt lat="46.47613" lon="0.52605">
        <ele>129.27</ele>
        <time>2022-03-20T15:12:21Z</time>
      </trkpt>
      <trkpt lat="46.47613" lon="0.52594">
        <ele>129.32</ele>
        <time>2022-03-20T15:12:30Z</time>
      </trkpt>
      <trkpt lat="46.47613" lon="0.52583">
        <ele>129.354</ele>
        <time>2022-03-20T15:12:36Z</time>
      </trkpt>
      <trkpt lat="46.47612" lon="0.52572">
        <ele>129.387</ele>
        <time>2022-03-20T15:12:44Z</time>
      </trkpt>
      <trkpt lat="46.47611" lon="0.52562">
        <ele>129.416</ele>
        <time>2022-03-20T15:12:51Z</time>
      </trkpt>
      <trkpt lat="46.47611" lon="0.52553">
        <ele>129.447</ele>
        <time>2022-03-20T15:12:57Z</time>
      </trkpt>
      <trkpt lat="46.4761" lon="0.52543">
        <ele>129.486</ele>
        <time>2022-03-20T15:13:03Z</time>
      </trkpt>
      <trkpt lat="46.4761" lon="0.52533">
        <ele>129.532</ele>
        <time>2022-03-20T15:13:09Z</time>
      </trkpt>
      <trkpt lat="46.4761" lon="0.52522">
        <ele>129.661</ele>
        <time>2022-03-20T15:13:21Z</time>
      </trkpt>
      <trkpt lat="46.47614" lon="0.52513">
        <ele>129.714</ele>
        <time>2022-03-20T15:13:26Z</time>
      </trkpt>
      <trkpt lat="46.47612" lon="0.52504">
        <ele>129.718</ele>
        <time>2022-03-20T15:13:33Z</time>
      </trkpt>
      <trkpt lat="46.47611" lon="0.52494">
        <ele>129.696</ele>
        <time>2022-03-20T15:13:39Z</time>
      </trkpt>
      <trkpt lat="46.47611" lon="0.52485">
        <ele>129.679</ele>
        <time>2022-03-20T15:13:45Z</time>
      </trkpt>
      <trkpt lat="46.47612" lon="0.52475">
        <ele>129.696</ele>
        <time>2022-03-20T15:13:51Z</time>
      </trkpt>
      <trkpt lat="46.47616" lon="0.52465">
        <ele>129.724</ele>
        <time>2022-03-20T15:13:59Z</time>
      </trkpt>
      <trkpt lat="46.47616" lon="0.52455">
        <ele>129.751</ele>
        <time>2022-03-20T15:14:05Z</time>
      </trkpt>
      <trkpt lat="46.47618" lon="0.52445">
        <ele>129.783</ele>
        <time>2022-03-20T15:14:12Z</time>
      </trkpt>
      <trkpt lat="46.47619" lon="0.52435">
        <ele>129.805</ele>
        <time>2022-03-20T15:14:20Z</time>
      </trkpt>
      <trkpt lat="46.47619" lon="0.52425">
        <ele>129.814</ele>
        <time>2022-03-20T15:14:37Z</time>
      </trkpt>
      <trkpt lat="46.4762" lon="0.52415">
        <ele>129.819</ele>
        <time>2022-03-20T15:14:46Z</time>
      </trkpt>
      <trkpt lat="46.47618" lon="0.52404">
        <ele>129.835</ele>
        <time>2022-03-20T15:14:52Z</time>
      </trkpt>
      <trkpt lat="46.47615" lon="0.52394">
        <ele>130.131</ele>
        <time>2022-03-20T15:15:10Z</time>
      </trkpt>
    </trkseg>
  </trk>
</gpx>